Darstellungsparameter: Aktuell verwendete Einstellungen:
Skalierung der Graphiken ... ?
xyx+y,   Skalierungsfaktor:      Skalierung: Modus: x, Faktor: 1
Darstellungszeitraum ... ?
Vom - - bis: - -   Zeitraum: 06.07.2014 - 12.07.2014
Min/Max/Avg-Anzeige ... ?
Zeige MMA aktuell
Zeige MMA Monat
Zeige MMA alles
Zeige --A aktuell
Zeige --A Monat
Zeige --A alles
Keine MMA-Anzeige
MMA:
Average (ber die Originaldaten)
MMA-Basis: 06.07.2014 - 12.07.2014
Quicknavigation für Darstellung... ?
Tage:      1T, 2T, 3T, 5T -1T -2T -3T -5T +1T +2T +3T +5T
Wochen: 1W, 2W, 3W -1W -2W -3W +1W +2W +3W
Monate: 1M, 3M, 6M -1M -3M -6M +1M +3M +6M
Jahre:    1J, 3J, 5J, 10J -1J -3J -5J -10J +1J +3J +5J +10J
Nutze für die Darstellung ... ?
Originaldaten oder Mittelwerte auf ...
Stundenbasis Tagesbasis Wochenbasis
Monatsbasis Jahresbasis      Datenbasis: Original-Daten
Darstellen als:
Statistik (Auto) Statistik J:M      Darstellung:
Zur Graphik,    zurück zur Übersicht aller Sensoren.
 
Tabellarische Datenbersicht: ?
 
Sensor: Nr:Datum:Temp:Abs-Feuchte:Windchill:Wind:
Aussen-T/F 1 06-07-2014 00:00:00 19.4 C 14.52 g/m*3 19.4 C 0 km/h
2 06-07-2014 00:05:00 19.4 C 14.52 g/m*3 19.4 C 0 km/h
3 06-07-2014 00:10:00 19.3 C 14.43 g/m*3 19.3 C 0 km/h
4 06-07-2014 00:15:00 19.2 C 14.51 g/m*3 19.2 C 0 km/h
5 06-07-2014 00:20:00 19.1 C 14.43 g/m*3 19.1 C 0 km/h
6 06-07-2014 00:25:00 19.1 C 14.43 g/m*3 19.1 C 0 km/h
7 06-07-2014 00:30:00 19 C 14.34 g/m*3 19 C 0 km/h
8 06-07-2014 00:35:00 18.9 C 14.42 g/m*3 18.9 C 0 km/h
9 06-07-2014 00:40:00 18.7 C 14.09 g/m*3 18.7 C 0 km/h
10 06-07-2014 00:45:00 18.6 C 14.17 g/m*3 18.6 C 0 km/h
11 06-07-2014 00:50:00 18.5 C 14.08 g/m*3 18.5 C 0 km/h
12 06-07-2014 00:55:00 18.4 C 14.16 g/m*3 18.4 C 0 km/h
13 06-07-2014 01:00:00 18.4 C 14.16 g/m*3 18.4 C 0 km/h
14 06-07-2014 01:05:00 18.3 C 14.07 g/m*3 18.3 C 0 km/h
15 06-07-2014 01:10:00 18.3 C 14.07 g/m*3 18.3 C 0 km/h
16 06-07-2014 01:15:00 18.3 C 14.07 g/m*3 18.3 C 0 km/h
17 06-07-2014 01:20:00 18.2 C 13.99 g/m*3 18.2 C 0 km/h
18 06-07-2014 01:25:00 18.2 C 14.14 g/m*3 18.2 C 0 km/h
19 06-07-2014 01:30:00 18.2 C 14.14 g/m*3 18.2 C 0 km/h
20 06-07-2014 01:35:00 18.2 C 14.14 g/m*3 18.2 C 0 km/h
21 06-07-2014 01:40:00 18.2 C 14.14 g/m*3 18.2 C 0 km/h
22 06-07-2014 01:45:00 18.2 C 14.14 g/m*3 18.2 C 0 km/h
23 06-07-2014 01:50:00 18.2 C 14.14 g/m*3 18.2 C 0 km/h
24 06-07-2014 01:55:00 18.2 C 14.14 g/m*3 18.2 C 0 km/h
25 06-07-2014 02:00:00 18.2 C 14.14 g/m*3 18.2 C 0 km/h
Sensor: Nr:Datum:Temp:Abs-Feuchte:Windchill:Wind:
Aussen-T/F 26 06-07-2014 02:05:00 18.2 C 14.14 g/m*3 18.2 C 0 km/h
27 06-07-2014 02:10:00 18.2 C 14.14 g/m*3 18.2 C 0 km/h
28 06-07-2014 02:15:00 18.2 C 14.14 g/m*3 18.2 C 0 km/h
29 06-07-2014 02:20:00 18.1 C 14.06 g/m*3 18.1 C 0 km/h
30 06-07-2014 02:25:00 18.1 C 14.06 g/m*3 18.1 C 0 km/h
31 06-07-2014 02:30:00 18.1 C 14.21 g/m*3 18.1 C 0 km/h
32 06-07-2014 02:35:00 18.1 C 14.21 g/m*3 18.1 C 0 km/h
33 06-07-2014 02:40:00 18 C 14.13 g/m*3 18 C 0 km/h
34 06-07-2014 02:45:00 18 C 14.13 g/m*3 18 C 0 km/h
35 06-07-2014 02:50:00 18 C 14.13 g/m*3 18 C 0 km/h
36 06-07-2014 02:55:00 18 C 14.13 g/m*3 18 C 0 km/h
37 06-07-2014 03:00:00 18.1 C 14.21 g/m*3 18.1 C 0 km/h
38 06-07-2014 03:05:00 18.1 C 14.21 g/m*3 18.1 C 0 km/h
39 06-07-2014 03:10:00 18.1 C 14.21 g/m*3 18.1 C 0 km/h
40 06-07-2014 03:15:00 18.1 C 14.21 g/m*3 18.1 C 0 km/h
41 06-07-2014 03:20:00 18.1 C 14.21 g/m*3 18.1 C 0 km/h
42 06-07-2014 03:25:00 18.2 C 14.3 g/m*3 18.2 C 0 km/h
43 06-07-2014 03:30:00 18.2 C 14.14 g/m*3 18.2 C 0 km/h
44 06-07-2014 03:35:00 18.2 C 14.14 g/m*3 18.2 C 0 km/h
45 06-07-2014 03:40:00 18.2 C 14.14 g/m*3 18.2 C 0 km/h
46 06-07-2014 03:45:00 18.1 C 14.06 g/m*3 18.1 C 0 km/h
47 06-07-2014 03:50:00 18.1 C 14.06 g/m*3 18.1 C 0 km/h
48 06-07-2014 03:55:00 18 C 13.98 g/m*3 18 C 0 km/h
49 06-07-2014 04:00:00 17.9 C 13.89 g/m*3 17.9 C 0 km/h
50 06-07-2014 04:05:00 17.9 C 14.05 g/m*3 17.9 C 1.6 km/h
Sensor: Nr:Datum:Temp:Abs-Feuchte:Windchill:Wind:
Aussen-T/F 51 06-07-2014 04:10:00 17.9 C 13.89 g/m*3 17.9 C 0 km/h
52 06-07-2014 04:15:00 18.1 C 14.06 g/m*3 18.1 C 0 km/h
53 06-07-2014 04:20:00 18.1 C 14.06 g/m*3 18.1 C 0 km/h
54 06-07-2014 04:25:00 18.1 C 14.06 g/m*3 18.1 C 0 km/h
55 06-07-2014 04:30:00 18.1 C 14.06 g/m*3 18.1 C 0 km/h
56 06-07-2014 04:35:00 18.1 C 14.21 g/m*3 18.1 C 0 km/h
57 06-07-2014 04:40:00 18.1 C 14.21 g/m*3 18.1 C 0 km/h
58 06-07-2014 04:45:00 18.1 C 14.21 g/m*3 18.1 C 0 km/h
59 06-07-2014 04:50:00 18.1 C 14.21 g/m*3 18.1 C 0 km/h
60 06-07-2014 04:55:00 18.1 C 14.21 g/m*3 18.1 C 0 km/h
61 06-07-2014 05:00:00 18.1 C 14.21 g/m*3 18.1 C 0 km/h
62 06-07-2014 05:05:00 18.1 C 14.21 g/m*3 18.1 C 0 km/h
63 06-07-2014 05:10:00 18.1 C 14.37 g/m*3 18.1 C 0 km/h
64 06-07-2014 05:15:00 18.1 C 14.37 g/m*3 18.1 C 0 km/h
65 06-07-2014 05:20:00 18.1 C 14.37 g/m*3 18.1 C 0 km/h
66 06-07-2014 05:25:00 18.1 C 14.37 g/m*3 18.1 C 0 km/h
67 06-07-2014 05:30:00 18 C 14.28 g/m*3 18 C 0 km/h
68 06-07-2014 05:35:00 17.9 C 14.2 g/m*3 17.9 C 0 km/h
69 06-07-2014 05:40:00 17.9 C 14.35 g/m*3 17.9 C 0 km/h
70 06-07-2014 05:45:00 17.9 C 14.35 g/m*3 17.9 C 0 km/h
71 06-07-2014 05:50:00 17.9 C 14.35 g/m*3 17.9 C 0 km/h
72 06-07-2014 05:55:00 17.8 C 14.27 g/m*3 17.8 C 1.6 km/h
73 06-07-2014 06:00:00 17.8 C 14.27 g/m*3 17.8 C 0 km/h
74 06-07-2014 06:05:00 17.8 C 14.27 g/m*3 17.8 C 0 km/h
75 06-07-2014 06:10:00 17.8 C 14.27 g/m*3 17.8 C 0 km/h
Sensor: Nr:Datum:Temp:Abs-Feuchte:Windchill:Wind:
Aussen-T/F 76 06-07-2014 06:15:00 17.8 C 14.27 g/m*3 17.8 C 0 km/h
77 06-07-2014 06:20:00 17.8 C 14.27 g/m*3 17.8 C 0 km/h
78 06-07-2014 06:25:00 17.8 C 14.27 g/m*3 17.8 C 0 km/h
79 06-07-2014 06:30:00 17.9 C 14.5 g/m*3 17.9 C 0 km/h
80 06-07-2014 06:35:00 17.9 C 14.35 g/m*3 17.9 C 1.6 km/h
81 06-07-2014 06:40:00 18 C 14.44 g/m*3 18 C 0 km/h
82 06-07-2014 06:45:00 18.1 C 14.52 g/m*3 18.1 C 3.2 km/h
83 06-07-2014 06:50:00 18.2 C 14.61 g/m*3 18.2 C 1.6 km/h
84 06-07-2014 06:55:00 18.3 C 14.7 g/m*3 18.3 C 0 km/h
85 06-07-2014 07:00:00 18.4 C 14.63 g/m*3 18.4 C 8.1 km/h
86 06-07-2014 07:05:00 18.7 C 14.73 g/m*3 18.7 C 4.8 km/h
87 06-07-2014 07:10:00 18.9 C 14.74 g/m*3 18.9 C 3.2 km/h
88 06-07-2014 07:15:00 19.2 C 14.84 g/m*3 19.2 C 1.6 km/h
89 06-07-2014 07:20:00 19.3 C 14.93 g/m*3 19.3 C 0 km/h
90 06-07-2014 07:25:00 19.4 C 15.02 g/m*3 19.4 C 1.6 km/h
91 06-07-2014 07:30:00 19.6 C 15.02 g/m*3 19.6 C 3.2 km/h
92 06-07-2014 07:35:00 19.8 C 15.2 g/m*3 19.8 C 4.8 km/h
93 06-07-2014 07:40:00 19.9 C 15.12 g/m*3 19.9 C 1.6 km/h
94 06-07-2014 07:45:00 19.9 C 15.29 g/m*3 19.9 C 0 km/h
95 06-07-2014 07:50:00 20 C 15.38 g/m*3 20 C 0 km/h
96 06-07-2014 07:55:00 20.1 C 15.12 g/m*3 20.1 C 4.8 km/h
97 06-07-2014 08:00:00 20.4 C 15.21 g/m*3 20.4 C 4.8 km/h
98 06-07-2014 08:05:00 20.7 C 15.3 g/m*3 20.7 C 4.8 km/h
99 06-07-2014 08:10:00 20.9 C 15.66 g/m*3 20.9 C 0 km/h
100 06-07-2014 08:15:00 21.1 C 15.29 g/m*3 21.1 C 3.2 km/h
Sensor: Nr:Datum:Temp:Abs-Feuchte:Windchill:Wind:
Aussen-T/F 101 06-07-2014 08:20:00 21.4 C 15.37 g/m*3 21.4 C 1.6 km/h
102 06-07-2014 08:25:00 21.6 C 15.36 g/m*3 21.6 C 1.6 km/h
103 06-07-2014 08:30:00 21.9 C 15.82 g/m*3 21.9 C 3.2 km/h
104 06-07-2014 08:35:00 22.1 C 15.62 g/m*3 22.1 C 3.2 km/h
105 06-07-2014 08:40:00 22.3 C 15.4 g/m*3 22.3 C 6.4 km/h
106 06-07-2014 08:45:00 22.4 C 15.69 g/m*3 22.4 C 4.8 km/h
107 06-07-2014 08:50:00 22.6 C 15.47 g/m*3 22.6 C 3.2 km/h
108 06-07-2014 08:55:00 22.7 C 15.76 g/m*3 22.7 C 3.2 km/h
109 06-07-2014 09:00:00 22.8 C 16.05 g/m*3 22.8 C 3.2 km/h
110 06-07-2014 09:05:00 22.9 C 15.33 g/m*3 22.9 C 6.4 km/h
111 06-07-2014 09:10:00 22.9 C 15.53 g/m*3 22.9 C 0 km/h
112 06-07-2014 09:15:00 22.9 C 15.33 g/m*3 22.9 C 0 km/h
113 06-07-2014 09:20:00 22.9 C 15.33 g/m*3 22.9 C 1.6 km/h
114 06-07-2014 09:25:00 22.8 C 14.83 g/m*3 22.8 C 6.4 km/h
115 06-07-2014 09:30:00 22.8 C 14.83 g/m*3 22.8 C 4.8 km/h
116 06-07-2014 09:35:00 22.9 C 14.92 g/m*3 22.9 C 8.1 km/h
117 06-07-2014 09:40:00 22.9 C 14.92 g/m*3 22.9 C 4.8 km/h
118 06-07-2014 09:45:00 23.1 C 15.3 g/m*3 23.1 C 8.1 km/h
119 06-07-2014 09:50:00 23.3 C 15.26 g/m*3 23.3 C 6.4 km/h
120 06-07-2014 09:55:00 23.4 C 14.93 g/m*3 23.4 C 8.1 km/h
121 06-07-2014 10:00:00 23.7 C 15.4 g/m*3 23.7 C 8.1 km/h
122 06-07-2014 10:05:00 23.9 C 16.23 g/m*3 23.9 C 6.4 km/h
123 06-07-2014 10:10:00 24.3 C 15.27 g/m*3 24.3 C 4.8 km/h
124 06-07-2014 10:15:00 24.6 C 15.75 g/m*3 24.6 C 4.8 km/h
125 06-07-2014 10:20:00 24.8 C 15.48 g/m*3 24.8 C 8.1 km/h
Sensor: Nr:Datum:Temp:Abs-Feuchte:Windchill:Wind:
Aussen-T/F 126 06-07-2014 10:25:00 24.7 C 14.71 g/m*3 24.7 C 8.1 km/h
127 06-07-2014 10:30:00 24.8 C 15.25 g/m*3 24.8 C 11.3 km/h
128 06-07-2014 10:35:00 25 C 14.73 g/m*3 25 C 9.7 km/h
129 06-07-2014 10:40:00 25 C 14.73 g/m*3 25 C 8.1 km/h
130 06-07-2014 10:45:00 25 C 14.73 g/m*3 25 C 12.9 km/h
131 06-07-2014 10:50:00 24.8 C 14.57 g/m*3 24.8 C 9.7 km/h
132 06-07-2014 10:55:00 24.9 C 15.11 g/m*3 24.9 C 8.1 km/h
133 06-07-2014 11:00:00 25.1 C 15.28 g/m*3 25.1 C 11.3 km/h
134 06-07-2014 11:05:00 25.3 C 14.75 g/m*3 25.3 C 11.3 km/h
135 06-07-2014 11:10:00 25.8 C 15.17 g/m*3 25.8 C 8.1 km/h
136 06-07-2014 11:15:00 26.1 C 14.2 g/m*3 26.1 C 9.7 km/h
137 06-07-2014 11:20:00 25.9 C 14.53 g/m*3 25.9 C 11.3 km/h
138 06-07-2014 11:25:00 26.1 C 14.93 g/m*3 26.1 C 9.7 km/h
139 06-07-2014 11:30:00 26.5 C 14.77 g/m*3 26.5 C 9.7 km/h
140 06-07-2014 11:35:00 26.7 C 14.93 g/m*3 26.7 C 9.7 km/h
141 06-07-2014 11:40:00 26.8 C 15.02 g/m*3 26.8 C 6.4 km/h
142 06-07-2014 11:45:00 26.9 C 14.84 g/m*3 26.9 C 12.9 km/h
143 06-07-2014 11:50:00 27.1 C 14.23 g/m*3 27.1 C 12.9 km/h
144 06-07-2014 11:55:00 27.3 C 14.13 g/m*3 27.3 C 6.4 km/h
145 06-07-2014 12:00:00 27.4 C 15 g/m*3 27.4 C 14.5 km/h
146 06-07-2014 12:05:00 27.2 C 14.57 g/m*3 27.2 C 14.5 km/h
147 06-07-2014 12:10:00 27.1 C 13.97 g/m*3 27.1 C 8.1 km/h
148 06-07-2014 12:15:00 26.8 C 14 g/m*3 26.8 C 4.8 km/h
149 06-07-2014 12:20:00 26.7 C 14.17 g/m*3 26.7 C 9.7 km/h
150 06-07-2014 12:25:00 26.7 C 13.92 g/m*3 26.7 C 9.7 km/h
Sensor: Nr:Datum:Temp:Abs-Feuchte:Windchill:Wind:
Aussen-T/F 151 06-07-2014 12:30:00 27.1 C 14.23 g/m*3 27.1 C 6.4 km/h
152 06-07-2014 12:35:00 27.2 C 13.79 g/m*3 27.2 C 6.4 km/h
153 06-07-2014 12:40:00 27.2 C 14.05 g/m*3 27.2 C 11.3 km/h
154 06-07-2014 12:45:00 27.2 C 14.05 g/m*3 27.2 C 9.7 km/h
155 06-07-2014 12:50:00 27.3 C 14.39 g/m*3 27.3 C 6.4 km/h
156 06-07-2014 12:55:00 27.5 C 13.49 g/m*3 27.5 C 11.3 km/h
157 06-07-2014 13:00:00 27.6 C 13.57 g/m*3 27.6 C 14.5 km/h
158 06-07-2014 13:05:00 27.7 C 14.44 g/m*3 27.7 C 11.3 km/h
159 06-07-2014 13:10:00 27.6 C 13.57 g/m*3 27.6 C 11.3 km/h
160 06-07-2014 13:15:00 27.4 C 13.68 g/m*3 27.4 C 6.4 km/h
161 06-07-2014 13:20:00 27.7 C 13.64 g/m*3 27.7 C 9.7 km/h
162 06-07-2014 13:25:00 28.1 C 13.95 g/m*3 28.1 C 12.9 km/h
163 06-07-2014 13:30:00 28.5 C 13.97 g/m*3 28.5 C 9.7 km/h
164 06-07-2014 13:35:00 28.8 C 13.35 g/m*3 28.8 C 8.1 km/h
165 06-07-2014 13:40:00 28.7 C 13.85 g/m*3 28.7 C 11.3 km/h
166 06-07-2014 13:45:00 28.4 C 13.06 g/m*3 28.4 C 11.3 km/h
167 06-07-2014 13:50:00 28.3 C 12.99 g/m*3 28.3 C 14.5 km/h
168 06-07-2014 13:55:00 28.3 C 13.27 g/m*3 28.3 C 14.5 km/h
169 06-07-2014 14:00:00 28.4 C 13.06 g/m*3 28.4 C 11.3 km/h
170 06-07-2014 14:05:00 28.3 C 13.27 g/m*3 28.3 C 11.3 km/h
171 06-07-2014 14:10:00 28.3 C 12.99 g/m*3 28.3 C 9.7 km/h
172 06-07-2014 14:15:00 28.5 C 13.42 g/m*3 28.5 C 14.5 km/h
173 06-07-2014 14:20:00 28.7 C 13.28 g/m*3 28.7 C 8.1 km/h
174 06-07-2014 14:25:00 28.7 C 13.56 g/m*3 28.7 C 6.4 km/h
175 06-07-2014 14:30:00 28.7 C 13.85 g/m*3 28.7 C 9.7 km/h
Sensor: Nr:Datum:Temp:Abs-Feuchte:Windchill:Wind:
Aussen-T/F 176 06-07-2014 14:35:00 28.6 C 13.21 g/m*3 28.6 C 14.5 km/h
177 06-07-2014 14:40:00 28.6 C 13.49 g/m*3 28.6 C 4.8 km/h
178 06-07-2014 14:45:00 28.8 C 13.35 g/m*3 28.8 C 9.7 km/h
179 06-07-2014 14:50:00 29.1 C 13.28 g/m*3 29.1 C 12.9 km/h
180 06-07-2014 14:55:00 29.3 C 14.01 g/m*3 29.3 C 6.4 km/h
181 06-07-2014 15:00:00 29.3 C 12.85 g/m*3 29.3 C 9.7 km/h
182 06-07-2014 15:05:00 29.6 C 13.06 g/m*3 29.6 C 11.3 km/h
183 06-07-2014 15:10:00 29.8 C 13.2 g/m*3 29.8 C 14.5 km/h
184 06-07-2014 15:15:00 29.7 C 12.83 g/m*3 29.7 C 8.1 km/h
185 06-07-2014 15:20:00 29.3 C 12.55 g/m*3 29.3 C 11.3 km/h
186 06-07-2014 15:25:00 29 C 12.35 g/m*3 29 C 9.7 km/h
187 06-07-2014 15:30:00 28.9 C 12.57 g/m*3 28.9 C 6.4 km/h
188 06-07-2014 15:35:00 28.8 C 12.79 g/m*3 28.8 C 11.3 km/h
189 06-07-2014 15:40:00 28.9 C 12.86 g/m*3 28.9 C 12.9 km/h
190 06-07-2014 15:45:00 29.1 C 13.28 g/m*3 29.1 C 8.1 km/h
191 06-07-2014 15:50:00 29.1 C 13.57 g/m*3 29.1 C 8.1 km/h
192 06-07-2014 15:55:00 28.9 C 13.14 g/m*3 28.9 C 12.9 km/h
193 06-07-2014 16:00:00 28.9 C 13.43 g/m*3 28.9 C 6.4 km/h
194 06-07-2014 16:05:00 29.2 C 13.36 g/m*3 29.2 C 11.3 km/h
195 06-07-2014 16:10:00 29.6 C 13.35 g/m*3 29.6 C 19.3 km/h
196 06-07-2014 16:15:00 29.8 C 14.1 g/m*3 29.8 C 19.3 km/h
197 06-07-2014 16:20:00 30 C 14.25 g/m*3 30 C 9.7 km/h
198 06-07-2014 16:25:00 30.3 C 13.87 g/m*3 30.3 C 12.9 km/h
199 06-07-2014 16:30:00 30.3 C 14.49 g/m*3 30.3 C 9.7 km/h
200 06-07-2014 16:35:00 30.7 C 13.86 g/m*3 30.7 C 8.1 km/h
Sensor: Nr:Datum:Temp:Abs-Feuchte:Windchill:Wind:
Aussen-T/F 201 06-07-2014 16:40:00 30.6 C 14.09 g/m*3 30.6 C 9.7 km/h
202 06-07-2014 16:45:00 30.4 C 14.25 g/m*3 30.4 C 9.7 km/h
203 06-07-2014 16:50:00 30.3 C 13.56 g/m*3 30.3 C 9.7 km/h
204 06-07-2014 16:55:00 30.4 C 13.63 g/m*3 30.4 C 14.5 km/h
205 06-07-2014 17:00:00 30.8 C 13.93 g/m*3 30.8 C 14.5 km/h
206 06-07-2014 17:05:00 30.8 C 13.61 g/m*3 30.8 C 16.1 km/h
207 06-07-2014 17:10:00 31.1 C 13.51 g/m*3 31.1 C 12.9 km/h
208 06-07-2014 17:15:00 31.2 C 13.91 g/m*3 31.2 C 8.1 km/h
209 06-07-2014 17:20:00 31.4 C 14.06 g/m*3 31.4 C 6.4 km/h
210 06-07-2014 17:25:00 31.6 C 13.55 g/m*3 31.6 C 8.1 km/h
211 06-07-2014 17:30:00 31.4 C 13.08 g/m*3 31.4 C 8.1 km/h
212 06-07-2014 17:35:00 31.4 C 13.73 g/m*3 31.4 C 16.1 km/h
213 06-07-2014 17:40:00 31.3 C 12.68 g/m*3 31.3 C 9.7 km/h
214 06-07-2014 17:45:00 31.3 C 12.68 g/m*3 31.3 C 12.9 km/h
215 06-07-2014 17:50:00 31.1 C 12.55 g/m*3 31.1 C 19.3 km/h
216 06-07-2014 17:55:00 30.9 C 12.41 g/m*3 30.9 C 11.3 km/h
217 06-07-2014 18:00:00 30.9 C 13.05 g/m*3 30.9 C 8.1 km/h
218 06-07-2014 18:05:00 30.9 C 12.73 g/m*3 30.9 C 8.1 km/h
219 06-07-2014 18:10:00 31.2 C 12.94 g/m*3 31.2 C 11.3 km/h
220 06-07-2014 18:15:00 31.5 C 13.15 g/m*3 31.5 C 12.9 km/h
221 06-07-2014 18:20:00 31.5 C 13.15 g/m*3 31.5 C 11.3 km/h
222 06-07-2014 18:25:00 31.6 C 12.56 g/m*3 31.6 C 12.9 km/h
223 06-07-2014 18:30:00 31.3 C 12.68 g/m*3 31.3 C 11.3 km/h
224 06-07-2014 18:35:00 30.9 C 12.73 g/m*3 30.9 C 8.1 km/h
225 06-07-2014 18:40:00 30.2 C 12.87 g/m*3 30.2 C 17.7 km/h
Sensor: Nr:Datum:Temp:Abs-Feuchte:Windchill:Wind:
Aussen-T/F 226 06-07-2014 18:45:00 29.8 C 12.9 g/m*3 29.8 C 8.1 km/h
227 06-07-2014 18:50:00 29.4 C 13.21 g/m*3 29.4 C 4.8 km/h
228 06-07-2014 18:55:00 29.3 C 13.43 g/m*3 29.3 C 3.2 km/h
229 06-07-2014 19:00:00 29 C 14.36 g/m*3 29 C 4.8 km/h
230 06-07-2014 19:05:00 28.8 C 13.07 g/m*3 28.8 C 3.2 km/h
231 06-07-2014 19:10:00 28.9 C 14 g/m*3 28.9 C 4.8 km/h
232 06-07-2014 19:15:00 29.3 C 13.43 g/m*3 29.3 C 4.8 km/h
233 06-07-2014 19:20:00 29.9 C 13.27 g/m*3 29.9 C 11.3 km/h
234 06-07-2014 19:25:00 30.1 C 14.02 g/m*3 30.1 C 9.7 km/h
235 06-07-2014 19:30:00 30.2 C 14.1 g/m*3 30.2 C 1.6 km/h
236 06-07-2014 19:35:00 30.1 C 12.81 g/m*3 30.1 C 6.4 km/h
237 06-07-2014 19:40:00 29.9 C 12.97 g/m*3 29.9 C 6.4 km/h
238 06-07-2014 19:45:00 29.5 C 13.58 g/m*3 29.5 C 9.7 km/h
239 06-07-2014 19:50:00 29 C 12.93 g/m*3 29 C 1.6 km/h
240 06-07-2014 19:55:00 28.7 C 14.13 g/m*3 28.7 C 6.4 km/h
241 06-07-2014 20:00:00 28.2 C 14.3 g/m*3 28.2 C 4.8 km/h
242 06-07-2014 20:05:00 27.7 C 14.71 g/m*3 27.7 C 4.8 km/h
243 06-07-2014 20:10:00 27.1 C 15.01 g/m*3 27.1 C 0 km/h
244 06-07-2014 20:15:00 26.4 C 14.44 g/m*3 26.4 C 3.2 km/h
245 06-07-2014 20:20:00 26.1 C 14.93 g/m*3 26.1 C 1.6 km/h
246 06-07-2014 20:25:00 25.8 C 11.8 g/m*3 25.8 C 30.6 km/h
247 06-07-2014 20:30:00 24.9 C 11.45 g/m*3 24.9 C 25.7 km/h
248 06-07-2014 20:35:00 24.2 C 11.44 g/m*3 24.2 C 24.1 km/h
249 06-07-2014 20:40:00 23.4 C 11.57 g/m*3 23.4 C 22.5 km/h
250 06-07-2014 20:45:00 22.8 C 11.79 g/m*3 22.8 C 16.1 km/h
Sensor: Nr:Datum:Temp:Abs-Feuchte:Windchill:Wind:
Aussen-T/F 251 06-07-2014 20:50:00 22.3 C 12.05 g/m*3 22.3 C 11.3 km/h
252 06-07-2014 20:55:00 21.8 C 12.09 g/m*3 21.8 C 17.7 km/h
253 06-07-2014 21:00:00 21.5 C 12.26 g/m*3 21.5 C 14.5 km/h
254 06-07-2014 21:05:00 21.3 C 12.12 g/m*3 21.3 C 9.7 km/h
255 06-07-2014 21:10:00 21.3 C 12.12 g/m*3 21.3 C 12.9 km/h
256 06-07-2014 21:15:00 21.2 C 12.23 g/m*3 21.2 C 22.5 km/h
257 06-07-2014 21:20:00 21.1 C 13.08 g/m*3 21.1 C 25.7 km/h
258 06-07-2014 21:25:00 20.4 C 13.27 g/m*3 20.4 C 19.3 km/h
259 06-07-2014 21:30:00 19.7 C 13.25 g/m*3 19.7 C 9.7 km/h
260 06-07-2014 21:35:00 19.2 C 13.52 g/m*3 19.2 C 4.8 km/h
261 06-07-2014 21:40:00 18.8 C 13.53 g/m*3 18.8 C 4.8 km/h
262 06-07-2014 21:45:00 18.6 C 13.69 g/m*3 18.6 C 4.8 km/h
263 06-07-2014 21:50:00 18.3 C 13.45 g/m*3 18.3 C 1.6 km/h
264 06-07-2014 21:55:00 18.3 C 13.45 g/m*3 18.3 C 0 km/h
265 06-07-2014 22:00:00 18.2 C 13.83 g/m*3 18.2 C 1.6 km/h
266 06-07-2014 22:05:00 18.1 C 14.06 g/m*3 18.1 C 1.6 km/h
267 06-07-2014 22:10:00 18 C 13.98 g/m*3 18 C 0 km/h
268 06-07-2014 22:15:00 18 C 13.98 g/m*3 18 C 0 km/h
269 06-07-2014 22:20:00 18 C 13.98 g/m*3 18 C 0 km/h
270 06-07-2014 22:25:00 17.7 C 13.88 g/m*3 17.7 C 1.6 km/h
271 06-07-2014 22:30:00 17.7 C 13.88 g/m*3 17.7 C 0 km/h
272 06-07-2014 22:35:00 17.5 C 13.87 g/m*3 17.5 C 0 km/h
273 06-07-2014 22:40:00 17.4 C 13.78 g/m*3 17.4 C 0 km/h
274 06-07-2014 22:45:00 17.4 C 13.93 g/m*3 17.4 C 0 km/h
275 06-07-2014 22:50:00 17.4 C 13.93 g/m*3 17.4 C 0 km/h
Sensor: Nr:Datum:Temp:Abs-Feuchte:Windchill:Wind:
Aussen-T/F 276 07-07-2014 01:10:00 17.7 C 14.03 g/m*3 17.7 C 1.6 km/h
277 07-07-2014 01:15:00 17.7 C 14.03 g/m*3 17.7 C 1.6 km/h
278 07-07-2014 01:20:00 17.8 C 14.12 g/m*3 17.8 C 4.8 km/h
279 07-07-2014 01:25:00 17.8 C 14.12 g/m*3 17.8 C 1.6 km/h
280 07-07-2014 01:30:00 17.9 C 14.05 g/m*3 17.9 C 3.2 km/h
281 07-07-2014 01:35:00 17.9 C 14.05 g/m*3 17.9 C 1.6 km/h
282 07-07-2014 01:40:00 17.9 C 14.05 g/m*3 17.9 C 0 km/h
283 07-07-2014 01:45:00 17.9 C 14.05 g/m*3 17.9 C 0 km/h
284 07-07-2014 02:25:00 17.4 C 13.63 g/m*3 17.4 C 11.3 km/h
285 07-07-2014 02:30:00 17.3 C 13.41 g/m*3 17.3 C 8.1 km/h
286 07-07-2014 02:35:00 17.3 C 13.41 g/m*3 17.3 C 8.1 km/h
287 07-07-2014 02:40:00 17.2 C 13.33 g/m*3 17.2 C 9.7 km/h
288 07-07-2014 02:45:00 17.2 C 13.33 g/m*3 17.2 C 8.1 km/h
289 07-07-2014 02:50:00 17.2 C 13.33 g/m*3 17.2 C 4.8 km/h
290 07-07-2014 02:55:00 17.1 C 13.25 g/m*3 17.1 C 8.1 km/h
291 07-07-2014 03:00:00 17 C 13.02 g/m*3 17 C 11.3 km/h
292 07-07-2014 03:05:00 16.9 C 12.94 g/m*3 16.9 C 6.4 km/h
293 07-07-2014 03:10:00 16.8 C 12.72 g/m*3 16.8 C 14.5 km/h
294 07-07-2014 03:15:00 16.8 C 12.72 g/m*3 16.8 C 6.4 km/h
295 07-07-2014 03:20:00 16.7 C 12.65 g/m*3 16.7 C 4.8 km/h
296 07-07-2014 03:25:00 16.7 C 12.79 g/m*3 16.7 C 3.2 km/h
297 07-07-2014 03:30:00 16.6 C 12.86 g/m*3 16.6 C 3.2 km/h
298 07-07-2014 03:35:00 16.4 C 12.56 g/m*3 16.4 C 0 km/h
299 07-07-2014 03:40:00 16.3 C 12.49 g/m*3 16.3 C 3.2 km/h
300 07-07-2014 03:45:00 16.2 C 12.41 g/m*3 16.2 C 4.8 km/h
Sensor: Nr:Datum:Temp:Abs-Feuchte:Windchill:Wind:
Aussen-T/F 301 07-07-2014 03:50:00 16.2 C 12.55 g/m*3 16.2 C 0 km/h
302 07-07-2014 03:55:00 16.1 C 12.47 g/m*3 16.1 C 0 km/h
303 07-07-2014 04:00:00 16 C 12.53 g/m*3 16 C 1.6 km/h
304 07-07-2014 04:05:00 15.9 C 12.32 g/m*3 15.9 C 1.6 km/h
305 07-07-2014 04:10:00 15.8 C 12.38 g/m*3 15.8 C 1.6 km/h
306 07-07-2014 04:15:00 15.8 C 12.38 g/m*3 15.8 C 3.2 km/h
307 07-07-2014 04:20:00 15.7 C 12.31 g/m*3 15.7 C 0 km/h
308 07-07-2014 04:25:00 15.7 C 12.31 g/m*3 15.7 C 1.6 km/h
309 07-07-2014 04:30:00 15.6 C 12.23 g/m*3 15.6 C 1.6 km/h
310 07-07-2014 04:35:00 15.6 C 12.23 g/m*3 15.6 C 1.6 km/h
311 07-07-2014 04:40:00 15.4 C 11.96 g/m*3 15.4 C 1.6 km/h
312 07-07-2014 04:45:00 15.4 C 12.09 g/m*3 15.4 C 1.6 km/h
313 07-07-2014 04:50:00 15.3 C 12.01 g/m*3 15.3 C 0 km/h
314 07-07-2014 04:55:00 15.2 C 11.94 g/m*3 15.2 C 0 km/h
315 07-07-2014 05:00:00 15.2 C 11.94 g/m*3 15.2 C 1.6 km/h
316 07-07-2014 05:05:00 15.2 C 12.07 g/m*3 15.2 C 0 km/h
317 07-07-2014 05:10:00 15.1 C 12 g/m*3 15.1 C 0 km/h
318 07-07-2014 05:15:00 14.9 C 11.85 g/m*3 14.9 C 0 km/h
319 07-07-2014 05:20:00 14.8 C 11.78 g/m*3 14.8 C 0 km/h
320 07-07-2014 05:25:00 14.6 C 11.64 g/m*3 14.6 C 1.6 km/h
321 07-07-2014 05:30:00 14.5 C 11.57 g/m*3 14.5 C 0 km/h
322 07-07-2014 05:35:00 14.4 C 11.62 g/m*3 14.4 C 0 km/h
323 07-07-2014 05:40:00 14.3 C 11.55 g/m*3 14.3 C 0 km/h
324 07-07-2014 05:45:00 14.1 C 11.41 g/m*3 14.1 C 0 km/h
325 07-07-2014 05:50:00 14 C 11.34 g/m*3 14 C 0 km/h
Sensor: Nr:Datum:Temp:Abs-Feuchte:Windchill:Wind:
Aussen-T/F 326 07-07-2014 05:55:00 13.9 C 11.27 g/m*3 13.9 C 0 km/h
327 07-07-2014 06:00:00 13.9 C 11.27 g/m*3 13.9 C 0 km/h
328 07-07-2014 06:05:00 13.9 C 11.39 g/m*3 13.9 C 0 km/h
329 07-07-2014 06:10:00 14 C 11.46 g/m*3 14 C 0 km/h
330 07-07-2014 06:15:00 14.1 C 11.53 g/m*3 14.1 C 0 km/h
331 07-07-2014 06:20:00 14.2 C 11.6 g/m*3 14.2 C 0 km/h
332 07-07-2014 06:25:00 14.3 C 11.67 g/m*3 14.3 C 0 km/h
333 07-07-2014 06:30:00 14.4 C 11.74 g/m*3 14.4 C 0 km/h
334 07-07-2014 06:35:00 14.4 C 11.62 g/m*3 14.4 C 0 km/h
335 07-07-2014 06:40:00 14.6 C 11.76 g/m*3 14.6 C 0 km/h
336 07-07-2014 06:45:00 14.7 C 11.83 g/m*3 14.7 C 1.6 km/h
337 07-07-2014 06:50:00 14.9 C 11.98 g/m*3 14.9 C 0 km/h
338 07-07-2014 06:55:00 15 C 12.05 g/m*3 15 C 0 km/h
339 07-07-2014 07:00:00 15.1 C 12 g/m*3 15.1 C 0 km/h
340 07-07-2014 07:05:00 15.1 C 11.74 g/m*3 15.1 C 0 km/h
341 07-07-2014 07:10:00 15.2 C 11.68 g/m*3 15.2 C 0 km/h
342 07-07-2014 07:15:00 15.3 C 11.88 g/m*3 15.3 C 0 km/h
343 07-07-2014 07:20:00 15.3 C 11.75 g/m*3 15.3 C 0 km/h
344 07-07-2014 07:25:00 15.4 C 11.82 g/m*3 15.4 C 0 km/h
345 07-07-2014 07:30:00 15.4 C 11.82 g/m*3 15.4 C 0 km/h
346 07-07-2014 07:35:00 15.5 C 11.76 g/m*3 15.5 C 0 km/h
347 07-07-2014 07:40:00 15.6 C 11.97 g/m*3 15.6 C 0 km/h
348 07-07-2014 07:45:00 15.6 C 11.84 g/m*3 15.6 C 0 km/h
349 07-07-2014 07:50:00 15.5 C 11.63 g/m*3 15.5 C 0 km/h
350 07-07-2014 07:55:00 15.5 C 11.76 g/m*3 15.5 C 0 km/h
Sensor: Nr:Datum:Temp:Abs-Feuchte:Windchill:Wind:
Aussen-T/F 351 07-07-2014 08:00:00 15.6 C 11.84 g/m*3 15.6 C 0 km/h
352 07-07-2014 08:05:00 15.6 C 11.7 g/m*3 15.6 C 0 km/h
353 07-07-2014 08:10:00 15.7 C 11.77 g/m*3 15.7 C 1.6 km/h
354 07-07-2014 08:15:00 15.7 C 11.64 g/m*3 15.7 C 0 km/h
355 07-07-2014 08:20:00 15.7 C 11.64 g/m*3 15.7 C 0 km/h
356 07-07-2014 08:25:00 15.8 C 11.58 g/m*3 15.8 C 1.6 km/h
357 07-07-2014 08:30:00 15.8 C 11.71 g/m*3 15.8 C 0 km/h
358 07-07-2014 08:35:00 15.9 C 11.65 g/m*3 15.9 C 0 km/h
359 07-07-2014 08:40:00 16 C 11.85 g/m*3 16 C 0 km/h
360 07-07-2014 08:45:00 16.1 C 11.79 g/m*3 16.1 C 0 km/h
361 07-07-2014 08:50:00 16.2 C 11.86 g/m*3 16.2 C 0 km/h
362 07-07-2014 08:55:00 16.3 C 12.07 g/m*3 16.3 C 0 km/h
363 07-07-2014 09:00:00 16.4 C 11.17 g/m*3 16.4 C 3.2 km/h
364 07-07-2014 09:05:00 16.6 C 10.74 g/m*3 16.6 C 3.2 km/h
365 07-07-2014 09:10:00 16.7 C 10.37 g/m*3 16.7 C 6.4 km/h
366 07-07-2014 09:15:00 16.8 C 10.29 g/m*3 16.8 C 4.8 km/h
367 07-07-2014 09:20:00 16.8 C 10.15 g/m*3 16.8 C 4.8 km/h
368 07-07-2014 09:25:00 16.9 C 10.07 g/m*3 16.9 C 8.1 km/h
369 07-07-2014 09:30:00 16.9 C 9.92 g/m*3 16.9 C 6.4 km/h
370 07-07-2014 09:35:00 16.9 C 9.92 g/m*3 16.9 C 4.8 km/h
371 07-07-2014 09:40:00 16.9 C 9.78 g/m*3 16.9 C 3.2 km/h
372 07-07-2014 09:45:00 16.9 C 9.64 g/m*3 16.9 C 8.1 km/h
373 07-07-2014 09:50:00 16.8 C 9.29 g/m*3 16.8 C 4.8 km/h
374 07-07-2014 09:55:00 16.8 C 9.29 g/m*3 16.8 C 6.4 km/h
375 07-07-2014 10:00:00 16.8 C 9.58 g/m*3 16.8 C 6.4 km/h
Sensor: Nr:Datum:Temp:Abs-Feuchte:Windchill:Wind:
Aussen-T/F 376 07-07-2014 10:05:00 16.9 C 9.78 g/m*3 16.9 C 3.2 km/h
377 07-07-2014 10:10:00 17.3 C 10.02 g/m*3 17.3 C 3.2 km/h
378 07-07-2014 10:15:00 17.6 C 9.9 g/m*3 17.6 C 4.8 km/h
379 07-07-2014 10:20:00 17.8 C 9.71 g/m*3 17.8 C 6.4 km/h
380 07-07-2014 10:25:00 18.2 C 9.95 g/m*3 18.2 C 4.8 km/h
381 07-07-2014 10:30:00 18.4 C 10.22 g/m*3 18.4 C 4.8 km/h
382 07-07-2014 10:35:00 18.6 C 10.5 g/m*3 18.6 C 8.1 km/h
383 07-07-2014 10:40:00 18.8 C 10.47 g/m*3 18.8 C 3.2 km/h
384 07-07-2014 10:45:00 18.8 C 10.31 g/m*3 18.8 C 8.1 km/h
385 07-07-2014 10:50:00 18.8 C 10.63 g/m*3 18.8 C 3.2 km/h
386 07-07-2014 10:55:00 19.1 C 9.84 g/m*3 19.1 C 8.1 km/h
387 07-07-2014 11:00:00 19.3 C 9.62 g/m*3 19.3 C 6.4 km/h
388 07-07-2014 11:05:00 19.4 C 9.68 g/m*3 19.4 C 8.1 km/h
389 07-07-2014 11:10:00 19.4 C 9.51 g/m*3 19.4 C 4.8 km/h
390 07-07-2014 11:15:00 19.4 C 9.68 g/m*3 19.4 C 4.8 km/h
391 07-07-2014 11:20:00 19.3 C 9.45 g/m*3 19.3 C 4.8 km/h
392 07-07-2014 11:25:00 19.3 C 9.45 g/m*3 19.3 C 3.2 km/h
393 07-07-2014 11:30:00 19.4 C 9.34 g/m*3 19.4 C 8.1 km/h
394 07-07-2014 11:35:00 19.4 C 9.34 g/m*3 19.4 C 3.2 km/h
395 07-07-2014 11:40:00 19.4 C 9.51 g/m*3 19.4 C 6.4 km/h
396 07-07-2014 11:45:00 19.7 C 9.17 g/m*3 19.7 C 6.4 km/h
397 07-07-2014 11:50:00 19.9 C 9.11 g/m*3 19.9 C 8.1 km/h
398 07-07-2014 11:55:00 20.1 C 9.56 g/m*3 20.1 C 4.8 km/h
399 07-07-2014 12:00:00 20.3 C 9.32 g/m*3 20.3 C 4.8 km/h
400 07-07-2014 12:05:00 20.6 C 9.31 g/m*3 20.6 C 6.4 km/h
Sensor: Nr:Datum:Temp:Abs-Feuchte:Windchill:Wind:
Aussen-T/F 401 07-07-2014 12:10:00 20.6 C 9.66 g/m*3 20.6 C 4.8 km/h
402 07-07-2014 12:15:00 20.5 C 9.25 g/m*3 20.5 C 4.8 km/h
403 07-07-2014 12:20:00 20.7 C 9.9 g/m*3 20.7 C 6.4 km/h
404 07-07-2014 12:25:00 20.9 C 8.92 g/m*3 20.9 C 3.2 km/h
405 07-07-2014 12:30:00 21.2 C 9.64 g/m*3 21.2 C 9.7 km/h
406 07-07-2014 12:35:00 21.4 C 9.19 g/m*3 21.4 C 8.1 km/h
407 07-07-2014 12:40:00 21.7 C 10.11 g/m*3 21.7 C 6.4 km/h
408 07-07-2014 12:45:00 21.9 C 9.84 g/m*3 21.9 C 9.7 km/h
409 07-07-2014 12:50:00 21.8 C 9.21 g/m*3 21.8 C 4.8 km/h
410 07-07-2014 12:55:00 21.7 C 9.73 g/m*3 21.7 C 9.7 km/h
411 07-07-2014 13:00:00 21.8 C 9.59 g/m*3 21.8 C 6.4 km/h
412 07-07-2014 13:05:00 21.8 C 9.78 g/m*3 21.8 C 6.4 km/h
413 07-07-2014 13:10:00 21.8 C 9.4 g/m*3 21.8 C 4.8 km/h
414 07-07-2014 13:15:00 21.7 C 9.92 g/m*3 21.7 C 6.4 km/h
415 07-07-2014 13:20:00 21.8 C 9.78 g/m*3 21.8 C 8.1 km/h
416 07-07-2014 13:25:00 21.8 C 9.21 g/m*3 21.8 C 6.4 km/h
417 07-07-2014 13:30:00 21.7 C 9.73 g/m*3 21.7 C 4.8 km/h
418 07-07-2014 13:35:00 21.8 C 10.55 g/m*3 21.8 C 4.8 km/h
419 07-07-2014 13:40:00 21.8 C 9.4 g/m*3 21.8 C 6.4 km/h
420 07-07-2014 13:45:00 21.7 C 9.92 g/m*3 21.7 C 3.2 km/h
421 07-07-2014 13:50:00 21.8 C 9.4 g/m*3 21.8 C 4.8 km/h
422 07-07-2014 13:55:00 21.9 C 9.65 g/m*3 21.9 C 3.2 km/h
423 07-07-2014 14:00:00 22.2 C 9.82 g/m*3 22.2 C 6.4 km/h
424 07-07-2014 14:05:00 22.4 C 9.73 g/m*3 22.4 C 6.4 km/h
425 07-07-2014 14:10:00 22.7 C 9.9 g/m*3 22.7 C 6.4 km/h
Sensor: Nr:Datum:Temp:Abs-Feuchte:Windchill:Wind:
Aussen-T/F 426 07-07-2014 14:15:00 22.7 C 10.1 g/m*3 22.7 C 6.4 km/h
427 07-07-2014 14:20:00 22.9 C 10.01 g/m*3 22.9 C 4.8 km/h
428 07-07-2014 14:25:00 22.9 C 8.79 g/m*3 22.9 C 3.2 km/h
429 07-07-2014 14:30:00 23.1 C 9.92 g/m*3 23.1 C 9.7 km/h
430 07-07-2014 14:35:00 23.3 C 9.2 g/m*3 23.3 C 9.7 km/h
431 07-07-2014 14:40:00 23.4 C 9.25 g/m*3 23.4 C 8.1 km/h
432 07-07-2014 14:45:00 23.5 C 9.31 g/m*3 23.5 C 9.7 km/h
433 07-07-2014 14:50:00 23.4 C 9.25 g/m*3 23.4 C 6.4 km/h
434 07-07-2014 14:55:00 23.3 C 9.41 g/m*3 23.3 C 8.1 km/h
435 07-07-2014 15:00:00 23.4 C 9.25 g/m*3 23.4 C 4.8 km/h
436 07-07-2014 15:05:00 23.4 C 8.62 g/m*3 23.4 C 11.3 km/h
437 07-07-2014 15:10:00 23.3 C 9.2 g/m*3 23.3 C 6.4 km/h
438 07-07-2014 15:15:00 23.6 C 9.78 g/m*3 23.6 C 4.8 km/h
439 07-07-2014 15:20:00 23.9 C 9.3 g/m*3 23.9 C 6.4 km/h
440 07-07-2014 15:25:00 24.1 C 8.53 g/m*3 24.1 C 3.2 km/h
441 07-07-2014 15:30:00 24.2 C 9.24 g/m*3 24.2 C 9.7 km/h
442 07-07-2014 15:35:00 24.3 C 8.63 g/m*3 24.3 C 6.4 km/h
443 07-07-2014 15:40:00 24.4 C 8.68 g/m*3 24.4 C 9.7 km/h
444 07-07-2014 15:45:00 24.2 C 9.24 g/m*3 24.2 C 9.7 km/h
445 07-07-2014 15:50:00 24.2 C 8.58 g/m*3 24.2 C 8.1 km/h
446 07-07-2014 15:55:00 24.3 C 9.29 g/m*3 24.3 C 9.7 km/h
447 07-07-2014 16:00:00 24.3 C 8.85 g/m*3 24.3 C 8.1 km/h
448 07-07-2014 16:05:00 24.2 C 9.02 g/m*3 24.2 C 11.3 km/h
449 07-07-2014 16:10:00 24 C 9.14 g/m*3 24 C 11.3 km/h
450 07-07-2014 16:15:00 23.8 C 8.39 g/m*3 23.8 C 9.7 km/h
Sensor: Nr:Datum:Temp:Abs-Feuchte:Windchill:Wind:
Aussen-T/F 451 07-07-2014 16:20:00 23.8 C 8.39 g/m*3 23.8 C 4.8 km/h
452 07-07-2014 16:25:00 24.1 C 8.53 g/m*3 24.1 C 9.7 km/h
453 07-07-2014 16:30:00 24.4 C 8.46 g/m*3 24.4 C 8.1 km/h
454 07-07-2014 16:35:00 24.3 C 7.97 g/m*3 24.3 C 6.4 km/h
455 07-07-2014 16:40:00 24.4 C 8.9 g/m*3 24.4 C 6.4 km/h
456 07-07-2014 16:45:00 24.5 C 9.18 g/m*3 24.5 C 9.7 km/h
457 07-07-2014 16:50:00 24.6 C 8.78 g/m*3 24.6 C 9.7 km/h
458 07-07-2014 16:55:00 24.5 C 8.5 g/m*3 24.5 C 14.5 km/h
459 07-07-2014 17:00:00 24.3 C 8.63 g/m*3 24.3 C 8.1 km/h
460 07-07-2014 17:05:00 24.4 C 8.9 g/m*3 24.4 C 8.1 km/h
461 07-07-2014 17:10:00 24.6 C 9.68 g/m*3 24.6 C 9.7 km/h
462 07-07-2014 17:15:00 25.1 C 8.8 g/m*3 25.1 C 9.7 km/h
463 07-07-2014 17:20:00 25.1 C 9.03 g/m*3 25.1 C 14.5 km/h
464 07-07-2014 17:25:00 25.4 C 8.95 g/m*3 25.4 C 11.3 km/h
465 07-07-2014 17:30:00 25.6 C 8.81 g/m*3 25.6 C 11.3 km/h
466 07-07-2014 17:35:00 25.9 C 9.68 g/m*3 25.9 C 11.3 km/h
467 07-07-2014 17:40:00 25.9 C 9.2 g/m*3 25.9 C 9.7 km/h
468 07-07-2014 17:45:00 26 C 9.49 g/m*3 26 C 12.9 km/h
469 07-07-2014 17:50:00 26.2 C 9.35 g/m*3 26.2 C 11.3 km/h
470 07-07-2014 17:55:00 26.1 C 9.55 g/m*3 26.1 C 4.8 km/h
471 07-07-2014 18:00:00 25.9 C 9.93 g/m*3 25.9 C 6.4 km/h
472 07-07-2014 18:05:00 26.1 C 9.06 g/m*3 26.1 C 9.7 km/h
473 07-07-2014 18:10:00 26 C 9.74 g/m*3 26 C 8.1 km/h
474 07-07-2014 18:15:00 25.9 C 9.44 g/m*3 25.9 C 11.3 km/h
475 07-07-2014 18:20:00 26.3 C 9.41 g/m*3 26.3 C 6.4 km/h
Sensor: Nr:Datum:Temp:Abs-Feuchte:Windchill:Wind:
Aussen-T/F 476 07-07-2014 18:25:00 26.4 C 9.21 g/m*3 26.4 C 9.7 km/h
477 07-07-2014 18:30:00 26.1 C 9.3 g/m*3 26.1 C 9.7 km/h
478 07-07-2014 18:35:00 26.1 C 9.3 g/m*3 26.1 C 11.3 km/h
479 07-07-2014 18:40:00 26.2 C 9.11 g/m*3 26.2 C 4.8 km/h
480 07-07-2014 18:45:00 26.1 C 9.06 g/m*3 26.1 C 12.9 km/h
481 07-07-2014 18:50:00 25.8 C 9.15 g/m*3 25.8 C 6.4 km/h
482 07-07-2014 18:55:00 25.7 C 9.34 g/m*3 25.7 C 4.8 km/h
483 07-07-2014 19:00:00 25.6 C 9.52 g/m*3 25.6 C 6.4 km/h
484 07-07-2014 19:05:00 25.7 C 9.58 g/m*3 25.7 C 12.9 km/h
485 07-07-2014 19:10:00 25.7 C 9.34 g/m*3 25.7 C 9.7 km/h
486 07-07-2014 19:15:00 25.7 C 9.58 g/m*3 25.7 C 8.1 km/h
487 07-07-2014 19:20:00 25.7 C 9.1 g/m*3 25.7 C 12.9 km/h
488 07-07-2014 19:25:00 25.2 C 9.08 g/m*3 25.2 C 9.7 km/h
489 07-07-2014 19:30:00 24.9 C 8.93 g/m*3 24.9 C 8.1 km/h
490 07-07-2014 19:35:00 24.7 C 9.51 g/m*3 24.7 C 9.7 km/h
491 07-07-2014 19:40:00 24.4 C 9.57 g/m*3 24.4 C 6.4 km/h
492 07-07-2014 19:45:00 24.2 C 9.9 g/m*3 24.2 C 3.2 km/h
493 07-07-2014 19:50:00 24.1 C 9.41 g/m*3 24.1 C 3.2 km/h
494 07-07-2014 19:55:00 23.9 C 9.74 g/m*3 23.9 C 6.4 km/h
495 07-07-2014 20:00:00 23.9 C 9.95 g/m*3 23.9 C 11.3 km/h
496 07-07-2014 20:05:00 23.9 C 10.17 g/m*3 23.9 C 6.4 km/h
497 07-07-2014 20:10:00 23.8 C 10.33 g/m*3 23.8 C 6.4 km/h
498 07-07-2014 20:15:00 23.7 C 10.05 g/m*3 23.7 C 11.3 km/h
499 07-07-2014 20:20:00 23.7 C 10.05 g/m*3 23.7 C 8.1 km/h
500 07-07-2014 20:25:00 23.5 C 9.73 g/m*3 23.5 C 8.1 km/h
Sensor: Nr:Datum:Temp:Abs-Feuchte:Windchill:Wind:
Aussen-T/F 501 07-07-2014 20:30:00 23.3 C 9.83 g/m*3 23.3 C 4.8 km/h
502 07-07-2014 20:35:00 22.9 C 9.81 g/m*3 22.9 C 6.4 km/h
503 07-07-2014 20:40:00 22.8 C 9.75 g/m*3 22.8 C 4.8 km/h
504 07-07-2014 20:45:00 22.6 C 9.84 g/m*3 22.6 C 4.8 km/h
505 07-07-2014 20:50:00 22.4 C 9.73 g/m*3 22.4 C 1.6 km/h
506 07-07-2014 20:55:00 22.3 C 10.07 g/m*3 22.3 C 1.6 km/h
507 07-07-2014 21:00:00 22.2 C 10.21 g/m*3 22.2 C 0 km/h
508 07-07-2014 21:05:00 21.9 C 11 g/m*3 21.9 C 0 km/h
509 07-07-2014 21:10:00 21.7 C 10.87 g/m*3 21.7 C 0 km/h
510 07-07-2014 21:15:00 21.3 C 10.62 g/m*3 21.3 C 1.6 km/h
511 07-07-2014 21:20:00 21.1 C 11.06 g/m*3 21.1 C 0 km/h
512 07-07-2014 21:25:00 20.9 C 11.11 g/m*3 20.9 C 0 km/h
513 07-07-2014 21:30:00 20.7 C 10.98 g/m*3 20.7 C 0 km/h
514 07-07-2014 21:35:00 20.6 C 10.92 g/m*3 20.6 C 1.6 km/h
515 07-07-2014 21:40:00 20.4 C 10.79 g/m*3 20.4 C 0 km/h
516 07-07-2014 21:45:00 20.4 C 11.14 g/m*3 20.4 C 0 km/h
517 07-07-2014 21:50:00 20.3 C 11.08 g/m*3 20.3 C 0 km/h
518 07-07-2014 21:55:00 20.1 C 10.78 g/m*3 20.1 C 1.6 km/h
519 07-07-2014 22:00:00 19.9 C 10.82 g/m*3 19.9 C 1.6 km/h
520 07-07-2014 22:05:00 19.8 C 10.76 g/m*3 19.8 C 0 km/h
521 07-07-2014 22:10:00 19.7 C 10.87 g/m*3 19.7 C 1.6 km/h
522 07-07-2014 22:15:00 19.5 C 10.74 g/m*3 19.5 C 0 km/h
523 07-07-2014 22:20:00 19.4 C 11.01 g/m*3 19.4 C 0 km/h
524 07-07-2014 22:25:00 19.3 C 11.11 g/m*3 19.3 C 0 km/h
525 07-07-2014 22:30:00 19.2 C 11.05 g/m*3 19.2 C 0 km/h
Sensor: Nr:Datum:Temp:Abs-Feuchte:Windchill:Wind:
Aussen-T/F 526 07-07-2014 22:35:00 19.1 C 10.98 g/m*3 19.1 C 0 km/h
527 07-07-2014 22:40:00 19 C 10.92 g/m*3 19 C 0 km/h
528 07-07-2014 22:45:00 19 C 11.41 g/m*3 19 C 0 km/h
529 07-07-2014 22:50:00 19 C 11.24 g/m*3 19 C 0 km/h
530 07-07-2014 22:55:00 19 C 11.41 g/m*3 19 C 0 km/h
531 07-07-2014 23:00:00 19 C 11.41 g/m*3 19 C 0 km/h
532 07-07-2014 23:05:00 19 C 11.08 g/m*3 19 C 3.2 km/h
533 07-07-2014 23:10:00 19.2 C 10.72 g/m*3 19.2 C 8.1 km/h
534 07-07-2014 23:15:00 19.4 C 10.84 g/m*3 19.4 C 0 km/h
535 07-07-2014 23:20:00 19.6 C 11.14 g/m*3 19.6 C 3.2 km/h
536 07-07-2014 23:25:00 19.5 C 11.24 g/m*3 19.5 C 0 km/h
537 07-07-2014 23:30:00 19.4 C 11.01 g/m*3 19.4 C 4.8 km/h
538 07-07-2014 23:35:00 19.4 C 11.18 g/m*3 19.4 C 0 km/h
539 07-07-2014 23:40:00 19.3 C 11.11 g/m*3 19.3 C 0 km/h
540 07-07-2014 23:45:00 19.2 C 11.05 g/m*3 19.2 C 1.6 km/h
541 07-07-2014 23:50:00 19.2 C 11.21 g/m*3 19.2 C 0 km/h
542 07-07-2014 23:55:00 19.2 C 11.05 g/m*3 19.2 C 0 km/h
543 08-07-2014 00:00:00 19.1 C 11.15 g/m*3 19.1 C 0 km/h
544 08-07-2014 00:05:00 19.1 C 11.15 g/m*3 19.1 C 0 km/h
545 08-07-2014 00:10:00 19 C 11.41 g/m*3 19 C 0 km/h
546 08-07-2014 00:15:00 18.9 C 11.02 g/m*3 18.9 C 3.2 km/h
547 08-07-2014 00:20:00 19 C 10.92 g/m*3 19 C 3.2 km/h
548 08-07-2014 00:25:00 19.1 C 10.82 g/m*3 19.1 C 0 km/h
549 08-07-2014 00:30:00 19 C 10.92 g/m*3 19 C 0 km/h
550 08-07-2014 00:35:00 18.8 C 10.95 g/m*3 18.8 C 0 km/h
Sensor: Nr:Datum:Temp:Abs-Feuchte:Windchill:Wind:
Aussen-T/F 551 08-07-2014 00:40:00 18.6 C 10.82 g/m*3 18.6 C 0 km/h
552 08-07-2014 00:45:00 18.4 C 10.85 g/m*3 18.4 C 0 km/h
553 08-07-2014 00:50:00 18.3 C 11.26 g/m*3 18.3 C 1.6 km/h
554 08-07-2014 00:55:00 18.3 C 11.1 g/m*3 18.3 C 0 km/h
555 08-07-2014 01:00:00 18.2 C 11.19 g/m*3 18.2 C 0 km/h
556 08-07-2014 01:05:00 18.2 C 11.19 g/m*3 18.2 C 0 km/h
557 08-07-2014 01:10:00 18.1 C 11.28 g/m*3 18.1 C 0 km/h
558 08-07-2014 01:15:00 18.1 C 11.28 g/m*3 18.1 C 1.6 km/h
559 08-07-2014 01:20:00 18.1 C 11.28 g/m*3 18.1 C 0 km/h
560 08-07-2014 01:25:00 18.1 C 11.28 g/m*3 18.1 C 0 km/h
561 08-07-2014 01:30:00 18.1 C 11.12 g/m*3 18.1 C 0 km/h
562 08-07-2014 01:35:00 18.2 C 10.72 g/m*3 18.2 C 8.1 km/h
563 08-07-2014 01:40:00 18.4 C 11.01 g/m*3 18.4 C 0 km/h
564 08-07-2014 01:45:00 18.5 C 11.08 g/m*3 18.5 C 1.6 km/h
565 08-07-2014 01:50:00 18.6 C 11.14 g/m*3 18.6 C 1.6 km/h
566 08-07-2014 01:55:00 18.5 C 11.23 g/m*3 18.5 C 0 km/h
567 08-07-2014 02:00:00 18.3 C 11.26 g/m*3 18.3 C 0 km/h
568 08-07-2014 02:05:00 18.2 C 11.19 g/m*3 18.2 C 0 km/h
569 08-07-2014 02:10:00 18.1 C 11.12 g/m*3 18.1 C 0 km/h
570 08-07-2014 02:15:00 18.1 C 11.28 g/m*3 18.1 C 0 km/h
571 08-07-2014 02:20:00 18 C 11.52 g/m*3 18 C 0 km/h
572 08-07-2014 02:25:00 17.8 C 11.38 g/m*3 17.8 C 0 km/h
573 08-07-2014 02:30:00 17.8 C 11.54 g/m*3 17.8 C 0 km/h
574 08-07-2014 02:35:00 17.7 C 11.47 g/m*3 17.7 C 0 km/h
575 08-07-2014 02:40:00 17.7 C 11.62 g/m*3 17.7 C 0 km/h
Sensor: Nr:Datum:Temp:Abs-Feuchte:Windchill:Wind:
Aussen-T/F 576 08-07-2014 02:45:00 17.7 C 11.62 g/m*3 17.7 C 0 km/h
577 08-07-2014 02:50:00 17.6 C 11.4 g/m*3 17.6 C 0 km/h
578 08-07-2014 02:55:00 17.6 C 11.55 g/m*3 17.6 C 0 km/h
579 08-07-2014 03:00:00 17.6 C 11.55 g/m*3 17.6 C 0 km/h
580 08-07-2014 03:05:00 17.5 C 11.78 g/m*3 17.5 C 0 km/h
581 08-07-2014 03:10:00 17.3 C 11.79 g/m*3 17.3 C 0 km/h
582 08-07-2014 03:15:00 17.2 C 12.01 g/m*3 17.2 C 0 km/h
583 08-07-2014 03:20:00 17 C 12.15 g/m*3 17 C 1.6 km/h
584 08-07-2014 03:25:00 16.8 C 12.44 g/m*3 16.8 C 1.6 km/h
585 08-07-2014 03:30:00 16.7 C 12.36 g/m*3 16.7 C 1.6 km/h
586 08-07-2014 03:35:00 16.7 C 12.36 g/m*3 16.7 C 1.6 km/h
587 08-07-2014 04:30:00 15.3 C 13.06 g/m*3 15.3 C 8.1 km/h
588 08-07-2014 04:35:00 15.2 C 12.2 g/m*3 15.2 C 0 km/h
589 08-07-2014 04:40:00 15.2 C 12.2 g/m*3 15.2 C 4.8 km/h
590 08-07-2014 04:45:00 15.1 C 12.13 g/m*3 15.1 C 4.8 km/h
591 08-07-2014 04:50:00 15 C 12.05 g/m*3 15 C 8.1 km/h
592 08-07-2014 04:55:00 15 C 12.05 g/m*3 15 C 3.2 km/h
593 08-07-2014 05:00:00 15 C 12.05 g/m*3 15 C 4.8 km/h
594 08-07-2014 05:05:00 15 C 12.05 g/m*3 15 C 4.8 km/h
595 08-07-2014 05:10:00 15 C 12.05 g/m*3 15 C 3.2 km/h
596 08-07-2014 07:15:00 14.8 C 12.16 g/m*3 14.8 C 3.2 km/h
597 08-07-2014 07:20:00 14.8 C 12.16 g/m*3 14.8 C 3.2 km/h
598 08-07-2014 07:35:00 14.8 C 12.67 g/m*3 14.8 C 1.6 km/h
599 08-07-2014 07:40:00 14.8 C 12.16 g/m*3 14.8 C 4.8 km/h
600 08-07-2014 07:45:00 14.8 C 12.03 g/m*3 14.8 C 1.6 km/h
Sensor: Nr:Datum:Temp:Abs-Feuchte:Windchill:Wind:
Aussen-T/F 601 08-07-2014 07:50:00 14.8 C 12.16 g/m*3 14.8 C 0 km/h
602 08-07-2014 07:55:00 14.9 C 12.24 g/m*3 14.9 C 0 km/h
603 08-07-2014 08:00:00 14.9 C 12.11 g/m*3 14.9 C 8.1 km/h
604 08-07-2014 08:05:00 14.9 C 12.11 g/m*3 14.9 C 3.2 km/h
605 08-07-2014 08:10:00 14.9 C 12.11 g/m*3 14.9 C 6.4 km/h
606 08-07-2014 08:15:00 14.9 C 12.11 g/m*3 14.9 C 3.2 km/h
607 08-07-2014 08:20:00 15 C 12.18 g/m*3 15 C 3.2 km/h
608 08-07-2014 08:25:00 15.1 C 12.39 g/m*3 15.1 C 0 km/h
609 08-07-2014 08:30:00 15.1 C 12.39 g/m*3 15.1 C 6.4 km/h
610 08-07-2014 08:35:00 15.1 C 12.26 g/m*3 15.1 C 3.2 km/h
611 08-07-2014 08:40:00 15.1 C 12.39 g/m*3 15.1 C 3.2 km/h
612 08-07-2014 08:45:00 15.1 C 12.26 g/m*3 15.1 C 8.1 km/h
613 08-07-2014 08:50:00 15.2 C 12.46 g/m*3 15.2 C 1.6 km/h
614 08-07-2014 08:55:00 15.2 C 12.33 g/m*3 15.2 C 1.6 km/h
615 08-07-2014 09:00:00 15.2 C 12.46 g/m*3 15.2 C 3.2 km/h
616 08-07-2014 09:05:00 15.2 C 12.33 g/m*3 15.2 C 0 km/h
617 08-07-2014 09:10:00 15.3 C 12.41 g/m*3 15.3 C 3.2 km/h
618 08-07-2014 09:15:00 15.3 C 12.41 g/m*3 15.3 C 3.2 km/h
619 08-07-2014 09:20:00 15.3 C 12.41 g/m*3 15.3 C 1.6 km/h
620 08-07-2014 09:25:00 15.3 C 12.41 g/m*3 15.3 C 4.8 km/h
621 08-07-2014 09:30:00 15.4 C 12.48 g/m*3 15.4 C 3.2 km/h
622 08-07-2014 09:35:00 15.4 C 12.61 g/m*3 15.4 C 4.8 km/h
623 08-07-2014 09:40:00 15.4 C 12.48 g/m*3 15.4 C 4.8 km/h
624 08-07-2014 09:45:00 15.5 C 12.56 g/m*3 15.5 C 1.6 km/h
625 08-07-2014 09:50:00 15.5 C 12.56 g/m*3 15.5 C 3.2 km/h
Sensor: Nr:Datum:Temp:Abs-Feuchte:Windchill:Wind:
Aussen-T/F 626 08-07-2014 09:55:00 15.4 C 12.48 g/m*3 15.4 C 6.4 km/h
627 08-07-2014 10:00:00 15.4 C 12.48 g/m*3 15.4 C 9.7 km/h
628 08-07-2014 10:05:00 15.4 C 12.48 g/m*3 15.4 C 4.8 km/h
629 08-07-2014 10:10:00 15.4 C 12.48 g/m*3 15.4 C 8.1 km/h
630 08-07-2014 10:15:00 15.4 C 12.35 g/m*3 15.4 C 11.3 km/h
631 08-07-2014 10:20:00 15.5 C 12.43 g/m*3 15.5 C 8.1 km/h
632 08-07-2014 10:25:00 15.5 C 12.56 g/m*3 15.5 C 9.7 km/h
633 08-07-2014 10:30:00 15.5 C 12.43 g/m*3 15.5 C 8.1 km/h
634 08-07-2014 10:35:00 15.6 C 12.5 g/m*3 15.6 C 3.2 km/h
635 08-07-2014 10:40:00 15.6 C 12.63 g/m*3 15.6 C 3.2 km/h
636 08-07-2014 10:45:00 15.6 C 12.5 g/m*3 15.6 C 9.7 km/h
637 08-07-2014 10:50:00 15.6 C 12.5 g/m*3 15.6 C 3.2 km/h
638 08-07-2014 10:55:00 15.6 C 12.5 g/m*3 15.6 C 3.2 km/h
639 08-07-2014 11:00:00 15.6 C 12.63 g/m*3 15.6 C 0 km/h
640 08-07-2014 11:05:00 15.6 C 12.63 g/m*3 15.6 C 0 km/h
641 08-07-2014 11:10:00 15.6 C 12.63 g/m*3 15.6 C 3.2 km/h
642 08-07-2014 11:15:00 15.5 C 12.56 g/m*3 15.5 C 0 km/h
643 08-07-2014 11:20:00 15.4 C 12.48 g/m*3 15.4 C 9.7 km/h
644 08-07-2014 11:25:00 15.5 C 12.56 g/m*3 15.5 C 1.6 km/h
645 08-07-2014 11:30:00 15.4 C 12.48 g/m*3 15.4 C 4.8 km/h
646 08-07-2014 11:35:00 15.4 C 12.48 g/m*3 15.4 C 1.6 km/h
647 08-07-2014 11:40:00 15.4 C 12.48 g/m*3 15.4 C 3.2 km/h
648 08-07-2014 11:45:00 15.5 C 12.56 g/m*3 15.5 C 6.4 km/h
649 08-07-2014 11:50:00 15.5 C 12.56 g/m*3 15.5 C 4.8 km/h
650 08-07-2014 11:55:00 15.5 C 12.56 g/m*3 15.5 C 6.4 km/h
Sensor: Nr:Datum:Temp:Abs-Feuchte:Windchill:Wind:
Aussen-T/F 651 08-07-2014 12:00:00 15.5 C 12.56 g/m*3 15.5 C 0 km/h
652 08-07-2014 12:05:00 15.4 C 12.48 g/m*3 15.4 C 0 km/h
653 08-07-2014 12:10:00 15.4 C 12.48 g/m*3 15.4 C 0 km/h
654 08-07-2014 12:15:00 15.5 C 12.56 g/m*3 15.5 C 1.6 km/h
655 08-07-2014 12:20:00 15.5 C 12.56 g/m*3 15.5 C 3.2 km/h
656 08-07-2014 12:25:00 15.6 C 12.63 g/m*3 15.6 C 0 km/h
657 08-07-2014 12:30:00 15.6 C 12.63 g/m*3 15.6 C 0 km/h
658 08-07-2014 12:35:00 15.7 C 12.71 g/m*3 15.7 C 0 km/h
659 08-07-2014 12:40:00 15.6 C 12.63 g/m*3 15.6 C 3.2 km/h
660 08-07-2014 12:45:00 15.7 C 12.71 g/m*3 15.7 C 3.2 km/h
661 08-07-2014 12:50:00 15.7 C 12.84 g/m*3 15.7 C 1.6 km/h
662 08-07-2014 12:55:00 15.7 C 12.71 g/m*3 15.7 C 6.4 km/h
663 08-07-2014 13:00:00 15.7 C 12.71 g/m*3 15.7 C 3.2 km/h
664 08-07-2014 13:05:00 15.7 C 12.71 g/m*3 15.7 C 3.2 km/h
665 08-07-2014 13:10:00 15.7 C 12.71 g/m*3 15.7 C 4.8 km/h
666 08-07-2014 13:15:00 15.6 C 12.63 g/m*3 15.6 C 1.6 km/h
667 08-07-2014 13:20:00 15.7 C 12.71 g/m*3 15.7 C 0 km/h
668 08-07-2014 13:25:00 15.7 C 12.71 g/m*3 15.7 C 6.4 km/h
669 08-07-2014 13:30:00 15.7 C 12.71 g/m*3 15.7 C 4.8 km/h
670 08-07-2014 13:35:00 15.7 C 12.71 g/m*3 15.7 C 3.2 km/h
671 08-07-2014 13:40:00 15.7 C 12.71 g/m*3 15.7 C 0 km/h
672 08-07-2014 13:45:00 15.8 C 12.79 g/m*3 15.8 C 6.4 km/h
673 08-07-2014 13:50:00 15.8 C 12.79 g/m*3 15.8 C 1.6 km/h
674 08-07-2014 13:55:00 15.8 C 12.79 g/m*3 15.8 C 0 km/h
675 08-07-2014 14:00:00 15.8 C 12.79 g/m*3 15.8 C 4.8 km/h
Sensor: Nr:Datum:Temp:Abs-Feuchte:Windchill:Wind:
Aussen-T/F 676 08-07-2014 14:05:00 15.8 C 12.79 g/m*3 15.8 C 3.2 km/h
677 08-07-2014 14:10:00 15.8 C 12.79 g/m*3 15.8 C 3.2 km/h
678 08-07-2014 14:15:00 15.9 C 12.87 g/m*3 15.9 C 1.6 km/h
679 08-07-2014 14:20:00 15.8 C 12.65 g/m*3 15.8 C 6.4 km/h
680 08-07-2014 14:25:00 15.9 C 12.73 g/m*3 15.9 C 4.8 km/h
681 08-07-2014 14:30:00 15.9 C 12.73 g/m*3 15.9 C 6.4 km/h
682 08-07-2014 14:35:00 15.9 C 12.73 g/m*3 15.9 C 1.6 km/h
683 08-07-2014 14:40:00 15.9 C 12.59 g/m*3 15.9 C 3.2 km/h
684 08-07-2014 14:45:00 15.8 C 12.52 g/m*3 15.8 C 1.6 km/h
685 08-07-2014 14:50:00 15.8 C 12.52 g/m*3 15.8 C 3.2 km/h
686 08-07-2014 14:55:00 15.8 C 12.52 g/m*3 15.8 C 3.2 km/h
687 08-07-2014 15:00:00 15.8 C 12.52 g/m*3 15.8 C 3.2 km/h
688 08-07-2014 15:05:00 15.8 C 12.65 g/m*3 15.8 C 3.2 km/h
689 08-07-2014 15:10:00 15.8 C 12.52 g/m*3 15.8 C 3.2 km/h
690 08-07-2014 15:15:00 15.8 C 12.65 g/m*3 15.8 C 4.8 km/h
691 08-07-2014 15:20:00 15.8 C 12.65 g/m*3 15.8 C 3.2 km/h
692 08-07-2014 15:25:00 15.7 C 12.44 g/m*3 15.7 C 3.2 km/h
693 08-07-2014 15:30:00 15.8 C 12.52 g/m*3 15.8 C 4.8 km/h
694 08-07-2014 15:35:00 15.8 C 12.52 g/m*3 15.8 C 1.6 km/h
695 08-07-2014 15:40:00 15.8 C 12.52 g/m*3 15.8 C 1.6 km/h
696 08-07-2014 15:45:00 15.7 C 12.44 g/m*3 15.7 C 6.4 km/h
697 08-07-2014 15:50:00 15.7 C 12.44 g/m*3 15.7 C 6.4 km/h
698 08-07-2014 15:55:00 15.7 C 12.31 g/m*3 15.7 C 8.1 km/h
699 08-07-2014 16:00:00 15.8 C 12.52 g/m*3 15.8 C 3.2 km/h
700 08-07-2014 16:05:00 15.7 C 12.44 g/m*3 15.7 C 4.8 km/h
Sensor: Nr:Datum:Temp:Abs-Feuchte:Windchill:Wind:
Aussen-T/F 701 08-07-2014 16:10:00 15.7 C 12.44 g/m*3 15.7 C 4.8 km/h
702 08-07-2014 16:15:00 15.7 C 12.44 g/m*3 15.7 C 4.8 km/h
703 08-07-2014 16:20:00 15.7 C 12.44 g/m*3 15.7 C 3.2 km/h
704 08-07-2014 16:25:00 15.7 C 12.44 g/m*3 15.7 C 3.2 km/h
705 08-07-2014 16:30:00 15.7 C 12.44 g/m*3 15.7 C 3.2 km/h
706 08-07-2014 16:35:00 15.7 C 12.44 g/m*3 15.7 C 9.7 km/h
707 08-07-2014 16:40:00 15.7 C 12.44 g/m*3 15.7 C 1.6 km/h
708 08-07-2014 16:45:00 15.7 C 12.44 g/m*3 15.7 C 6.4 km/h
709 08-07-2014 16:50:00 15.7 C 12.44 g/m*3 15.7 C 3.2 km/h
710 08-07-2014 17:30:00 15.8 C 12.25 g/m*3 15.8 C 12.9 km/h
711 08-07-2014 17:35:00 15.8 C 12.25 g/m*3 15.8 C 14.5 km/h
712 08-07-2014 17:40:00 15.8 C 12.11 g/m*3 15.8 C 14.5 km/h
713 08-07-2014 17:45:00 15.8 C 12.11 g/m*3 15.8 C 16.1 km/h
714 08-07-2014 17:50:00 15.7 C 12.04 g/m*3 15.7 C 14.5 km/h
715 08-07-2014 17:55:00 15.7 C 12.04 g/m*3 15.7 C 16.1 km/h
716 08-07-2014 18:00:00 15.7 C 12.04 g/m*3 15.7 C 11.3 km/h
717 08-07-2014 18:05:00 15.7 C 12.04 g/m*3 15.7 C 12.9 km/h
718 08-07-2014 18:10:00 15.7 C 12.04 g/m*3 15.7 C 9.7 km/h
719 08-07-2014 18:15:00 15.6 C 11.97 g/m*3 15.6 C 6.4 km/h
720 08-07-2014 18:20:00 15.6 C 11.97 g/m*3 15.6 C 9.7 km/h
721 08-07-2014 18:25:00 15.6 C 11.84 g/m*3 15.6 C 9.7 km/h
722 08-07-2014 18:30:00 15.6 C 11.84 g/m*3 15.6 C 14.5 km/h
723 08-07-2014 18:35:00 15.4 C 11.69 g/m*3 15.4 C 16.1 km/h
724 08-07-2014 18:40:00 15.4 C 11.69 g/m*3 15.4 C 12.9 km/h
725 08-07-2014 18:45:00 15.3 C 11.75 g/m*3 15.3 C 12.9 km/h
Sensor: Nr:Datum:Temp:Abs-Feuchte:Windchill:Wind:
Aussen-T/F 726 08-07-2014 18:50:00 15.3 C 11.62 g/m*3 15.3 C 25.7 km/h
727 08-07-2014 18:55:00 15.2 C 11.55 g/m*3 15.2 C 25.7 km/h
728 08-07-2014 19:00:00 15.2 C 11.55 g/m*3 15.2 C 14.5 km/h
729 08-07-2014 19:05:00 15.2 C 11.55 g/m*3 15.2 C 9.7 km/h
730 08-07-2014 19:10:00 15.2 C 11.55 g/m*3 15.2 C 20.9 km/h
731 08-07-2014 19:15:00 15.2 C 11.55 g/m*3 15.2 C 16.1 km/h
732 08-07-2014 19:20:00 15.1 C 11.61 g/m*3 15.1 C 11.3 km/h
733 08-07-2014 19:25:00 15.1 C 11.61 g/m*3 15.1 C 12.9 km/h
734 08-07-2014 19:30:00 15 C 11.54 g/m*3 15 C 12.9 km/h
735 08-07-2014 19:35:00 15 C 11.54 g/m*3 15 C 14.5 km/h
736 08-07-2014 19:40:00 14.9 C 11.47 g/m*3 14.9 C 11.3 km/h
737 08-07-2014 19:45:00 14.9 C 11.47 g/m*3 14.9 C 16.1 km/h
738 08-07-2014 19:50:00 14.9 C 11.47 g/m*3 14.9 C 9.7 km/h
739 08-07-2014 19:55:00 14.9 C 11.47 g/m*3 14.9 C 9.7 km/h
740 08-07-2014 20:00:00 14.9 C 11.47 g/m*3 14.9 C 11.3 km/h
741 08-07-2014 20:05:00 14.9 C 11.47 g/m*3 14.9 C 12.9 km/h
742 08-07-2014 20:10:00 14.8 C 11.4 g/m*3 14.8 C 11.3 km/h
743 08-07-2014 20:15:00 14.8 C 11.4 g/m*3 14.8 C 17.7 km/h
744 08-07-2014 20:20:00 14.7 C 11.33 g/m*3 14.7 C 16.1 km/h
745 08-07-2014 20:25:00 14.6 C 11.26 g/m*3 14.6 C 17.7 km/h
746 08-07-2014 20:30:00 14.5 C 11.32 g/m*3 14.5 C 16.1 km/h
747 08-07-2014 20:35:00 14.4 C 11.25 g/m*3 14.4 C 9.7 km/h
748 08-07-2014 20:40:00 14.2 C 11.11 g/m*3 14.2 C 11.3 km/h
749 08-07-2014 20:45:00 14.1 C 11.04 g/m*3 14.1 C 8.1 km/h
750 08-07-2014 20:50:00 14 C 10.98 g/m*3 14 C 14.5 km/h
Sensor: Nr:Datum:Temp:Abs-Feuchte:Windchill:Wind:
Aussen-T/F 751 08-07-2014 20:55:00 13.9 C 10.91 g/m*3 13.9 C 16.1 km/h
752 08-07-2014 21:00:00 13.9 C 10.91 g/m*3 13.9 C 17.7 km/h
753 08-07-2014 21:05:00 13.8 C 10.84 g/m*3 13.8 C 11.3 km/h
754 08-07-2014 21:10:00 13.8 C 10.96 g/m*3 13.8 C 12.9 km/h
755 08-07-2014 21:15:00 13.7 C 10.78 g/m*3 13.7 C 12.9 km/h
756 08-07-2014 21:20:00 13.7 C 10.89 g/m*3 13.7 C 12.9 km/h
757 08-07-2014 21:25:00 13.7 C 10.89 g/m*3 13.7 C 9.7 km/h
758 08-07-2014 21:30:00 13.6 C 10.83 g/m*3 13.6 C 12.9 km/h
759 08-07-2014 21:35:00 13.6 C 10.83 g/m*3 13.6 C 9.7 km/h
760 08-07-2014 21:40:00 13.5 C 10.76 g/m*3 13.5 C 12.9 km/h
761 08-07-2014 21:45:00 13.5 C 10.76 g/m*3 13.5 C 11.3 km/h
762 08-07-2014 21:50:00 13.4 C 10.69 g/m*3 13.4 C 0 km/h
763 08-07-2014 21:55:00 13.4 C 10.81 g/m*3 13.4 C 4.8 km/h
764 08-07-2014 22:00:00 13.4 C 10.93 g/m*3 13.4 C 0 km/h
765 08-07-2014 22:05:00 13.3 C 10.86 g/m*3 13.3 C 1.6 km/h
766 08-07-2014 22:10:00 13.3 C 10.86 g/m*3 13.3 C 4.8 km/h
767 08-07-2014 22:15:00 13.3 C 10.86 g/m*3 13.3 C 4.8 km/h
768 08-07-2014 22:20:00 13.3 C 10.86 g/m*3 13.3 C 4.8 km/h
769 08-07-2014 22:25:00 13.3 C 10.86 g/m*3 13.3 C 6.4 km/h
770 08-07-2014 22:30:00 13.3 C 10.86 g/m*3 13.3 C 8.1 km/h
771 08-07-2014 22:35:00 13.3 C 10.86 g/m*3 13.3 C 3.2 km/h
772 08-07-2014 22:40:00 13.3 C 10.86 g/m*3 13.3 C 4.8 km/h
773 08-07-2014 22:45:00 13.3 C 10.86 g/m*3 13.3 C 12.9 km/h
774 08-07-2014 22:50:00 13.3 C 10.86 g/m*3 13.3 C 3.2 km/h
775 08-07-2014 22:55:00 13.3 C 10.86 g/m*3 13.3 C 4.8 km/h
Sensor: Nr:Datum:Temp:Abs-Feuchte:Windchill:Wind:
Aussen-T/F 776 08-07-2014 23:00:00 13.3 C 10.86 g/m*3 13.3 C 4.8 km/h
777 08-07-2014 23:05:00 13.3 C 10.86 g/m*3 13.3 C 6.4 km/h
778 08-07-2014 23:10:00 13.2 C 10.91 g/m*3 13.2 C 1.6 km/h
779 08-07-2014 23:15:00 13.2 C 10.91 g/m*3 13.2 C 6.4 km/h
780 08-07-2014 23:20:00 13.2 C 10.91 g/m*3 13.2 C 6.4 km/h
781 08-07-2014 23:25:00 13.1 C 10.84 g/m*3 13.1 C 4.8 km/h
782 08-07-2014 23:30:00 13.1 C 10.84 g/m*3 13.1 C 3.2 km/h
783 08-07-2014 23:35:00 13.1 C 10.84 g/m*3 13.1 C 1.6 km/h
784 08-07-2014 23:40:00 13.1 C 10.84 g/m*3 13.1 C 6.4 km/h
785 08-07-2014 23:45:00 13.1 C 10.84 g/m*3 13.1 C 4.8 km/h
786 08-07-2014 23:50:00 13.1 C 10.84 g/m*3 13.1 C 6.4 km/h
787 08-07-2014 23:55:00 13.1 C 10.84 g/m*3 13.1 C 3.2 km/h
788 09-07-2014 00:00:00 13.1 C 10.84 g/m*3 13.1 C 1.6 km/h
789 09-07-2014 00:05:00 13.1 C 10.84 g/m*3 13.1 C 4.8 km/h
790 09-07-2014 00:10:00 13 C 10.66 g/m*3 13 C 9.7 km/h
791 09-07-2014 00:15:00 13 C 10.66 g/m*3 13 C 6.4 km/h
792 09-07-2014 00:20:00 13 C 10.66 g/m*3 13 C 14.5 km/h
793 09-07-2014 00:25:00 13 C 10.66 g/m*3 13 C 14.5 km/h
794 09-07-2014 00:30:00 13 C 10.66 g/m*3 13 C 12.9 km/h
795 09-07-2014 00:35:00 12.9 C 10.59 g/m*3 12.9 C 4.8 km/h
796 09-07-2014 00:40:00 12.9 C 10.59 g/m*3 12.9 C 4.8 km/h
797 09-07-2014 00:45:00 12.9 C 10.59 g/m*3 12.9 C 1.6 km/h
798 09-07-2014 00:50:00 12.9 C 10.71 g/m*3 12.9 C 1.6 km/h
799 09-07-2014 00:55:00 12.9 C 10.71 g/m*3 12.9 C 8.1 km/h
800 09-07-2014 01:00:00 12.8 C 10.53 g/m*3 12.8 C 12.9 km/h
Sensor: Nr:Datum:Temp:Abs-Feuchte:Windchill:Wind:
Aussen-T/F 801 09-07-2014 01:05:00 12.8 C 10.53 g/m*3 12.8 C 9.7 km/h
802 09-07-2014 01:10:00 12.8 C 10.53 g/m*3 12.8 C 3.2 km/h
803 09-07-2014 01:15:00 12.8 C 10.53 g/m*3 12.8 C 1.6 km/h
804 09-07-2014 01:20:00 12.7 C 10.46 g/m*3 12.7 C 3.2 km/h
805 09-07-2014 01:25:00 12.7 C 10.46 g/m*3 12.7 C 4.8 km/h
806 09-07-2014 01:30:00 12.6 C 10.4 g/m*3 12.6 C 4.8 km/h
807 09-07-2014 01:35:00 12.6 C 10.4 g/m*3 12.6 C 9.7 km/h
808 09-07-2014 01:40:00 12.6 C 10.4 g/m*3 12.6 C 11.3 km/h
809 09-07-2014 01:45:00 12.5 C 10.33 g/m*3 12.5 C 4.8 km/h
810 09-07-2014 01:50:00 12.4 C 10.27 g/m*3 12.4 C 3.2 km/h
811 09-07-2014 01:55:00 12.4 C 10.16 g/m*3 12.4 C 8.1 km/h
812 09-07-2014 02:00:00 12.4 C 10.27 g/m*3 12.4 C 3.2 km/h
813 09-07-2014 02:05:00 12.3 C 10.21 g/m*3 12.3 C 8.1 km/h
814 09-07-2014 02:10:00 12.3 C 10.21 g/m*3 12.3 C 3.2 km/h
815 09-07-2014 02:15:00 12.3 C 10.21 g/m*3 12.3 C 8.1 km/h
816 09-07-2014 02:20:00 12.3 C 10.21 g/m*3 12.3 C 4.8 km/h
817 09-07-2014 02:25:00 12.2 C 10.14 g/m*3 12.2 C 3.2 km/h
818 09-07-2014 02:30:00 12.1 C 10.08 g/m*3 12.1 C 11.3 km/h
819 09-07-2014 02:35:00 12.1 C 10.08 g/m*3 12.1 C 8.1 km/h
820 09-07-2014 02:40:00 12.1 C 10.08 g/m*3 12.1 C 3.2 km/h
821 09-07-2014 02:45:00 12 C 10.02 g/m*3 12 C 4.8 km/h
822 09-07-2014 02:50:00 11.9 C 9.96 g/m*3 11.9 C 8.1 km/h
823 09-07-2014 02:55:00 11.9 C 9.96 g/m*3 11.9 C 8.1 km/h
824 09-07-2014 03:00:00 11.9 C 9.85 g/m*3 11.9 C 3.2 km/h
825 09-07-2014 03:05:00 11.8 C 9.89 g/m*3 11.8 C 3.2 km/h
Sensor: Nr:Datum:Temp:Abs-Feuchte:Windchill:Wind:
Aussen-T/F 826 09-07-2014 03:10:00 11.8 C 9.89 g/m*3 11.8 C 1.6 km/h
827 09-07-2014 03:15:00 11.8 C 9.89 g/m*3 11.8 C 6.4 km/h
828 09-07-2014 03:20:00 11.7 C 9.83 g/m*3 11.7 C 3.2 km/h
829 09-07-2014 03:25:00 11.7 C 9.83 g/m*3 11.7 C 9.7 km/h
830 09-07-2014 03:30:00 11.7 C 9.83 g/m*3 11.7 C 1.6 km/h
831 09-07-2014 03:35:00 11.7 C 9.83 g/m*3 11.7 C 1.6 km/h
832 09-07-2014 03:40:00 11.7 C 9.83 g/m*3 11.7 C 6.4 km/h
833 09-07-2014 03:45:00 11.7 C 9.94 g/m*3 11.7 C 3.2 km/h
834 09-07-2014 03:50:00 11.7 C 9.94 g/m*3 11.7 C 3.2 km/h
835 09-07-2014 03:55:00 11.7 C 9.94 g/m*3 11.7 C 1.6 km/h
836 09-07-2014 04:00:00 11.7 C 9.94 g/m*3 11.7 C 1.6 km/h
837 09-07-2014 04:05:00 11.7 C 9.94 g/m*3 11.7 C 6.4 km/h
838 09-07-2014 04:10:00 11.7 C 9.94 g/m*3 11.7 C 9.7 km/h
839 09-07-2014 04:15:00 11.7 C 9.94 g/m*3 11.7 C 4.8 km/h
840 09-07-2014 04:20:00 11.7 C 9.94 g/m*3 11.7 C 1.6 km/h
841 09-07-2014 04:25:00 11.7 C 9.94 g/m*3 11.7 C 8.1 km/h
842 09-07-2014 04:30:00 11.7 C 9.94 g/m*3 11.7 C 3.2 km/h
843 09-07-2014 04:35:00 11.7 C 9.94 g/m*3 11.7 C 4.8 km/h
844 09-07-2014 04:40:00 11.7 C 9.94 g/m*3 11.7 C 3.2 km/h
845 09-07-2014 04:45:00 11.7 C 9.94 g/m*3 11.7 C 9.7 km/h
846 09-07-2014 04:50:00 11.8 C 10 g/m*3 11.8 C 4.8 km/h
847 09-07-2014 04:55:00 11.8 C 10 g/m*3 11.8 C 3.2 km/h
848 09-07-2014 05:00:00 11.8 C 10 g/m*3 11.8 C 1.6 km/h
849 09-07-2014 05:05:00 11.8 C 10 g/m*3 11.8 C 6.4 km/h
850 09-07-2014 05:10:00 11.8 C 10 g/m*3 11.8 C 4.8 km/h
Sensor: Nr:Datum:Temp:Abs-Feuchte:Windchill:Wind:
Aussen-T/F 851 09-07-2014 05:15:00 11.8 C 10 g/m*3 11.8 C 3.2 km/h
852 09-07-2014 05:20:00 11.9 C 10.06 g/m*3 11.9 C 4.8 km/h
853 09-07-2014 05:25:00 11.9 C 10.06 g/m*3 11.9 C 4.8 km/h
854 09-07-2014 05:30:00 11.9 C 10.06 g/m*3 11.9 C 3.2 km/h
855 09-07-2014 05:35:00 11.9 C 10.06 g/m*3 11.9 C 1.6 km/h
856 09-07-2014 05:40:00 11.9 C 10.06 g/m*3 11.9 C 3.2 km/h
857 09-07-2014 05:45:00 11.9 C 10.06 g/m*3 11.9 C 3.2 km/h
858 09-07-2014 05:50:00 11.9 C 10.06 g/m*3 11.9 C 1.6 km/h
859 09-07-2014 05:55:00 11.9 C 10.06 g/m*3 11.9 C 1.6 km/h
860 09-07-2014 06:00:00 12 C 10.12 g/m*3 12 C 1.6 km/h
861 09-07-2014 06:05:00 12 C 10.12 g/m*3 12 C 8.1 km/h
862 09-07-2014 06:10:00 12 C 10.12 g/m*3 12 C 4.8 km/h
863 09-07-2014 06:15:00 12 C 10.12 g/m*3 12 C 8.1 km/h
864 09-07-2014 06:20:00 11.9 C 10.06 g/m*3 11.9 C 6.4 km/h
865 09-07-2014 06:25:00 11.9 C 10.06 g/m*3 11.9 C 6.4 km/h
866 09-07-2014 06:30:00 12 C 10.12 g/m*3 12 C 4.8 km/h
867 09-07-2014 06:35:00 11.9 C 10.06 g/m*3 11.9 C 4.8 km/h
868 09-07-2014 06:40:00 11.9 C 10.06 g/m*3 11.9 C 6.4 km/h
869 09-07-2014 06:45:00 11.9 C 10.06 g/m*3 11.9 C 11.3 km/h
870 09-07-2014 06:50:00 11.9 C 9.96 g/m*3 11.9 C 6.4 km/h
871 09-07-2014 06:55:00 11.9 C 9.96 g/m*3 11.9 C 6.4 km/h
872 09-07-2014 07:00:00 11.9 C 9.96 g/m*3 11.9 C 11.3 km/h
873 09-07-2014 07:05:00 11.9 C 9.96 g/m*3 11.9 C 3.2 km/h
874 09-07-2014 07:10:00 11.9 C 9.96 g/m*3 11.9 C 4.8 km/h
875 09-07-2014 07:15:00 11.8 C 9.89 g/m*3 11.8 C 4.8 km/h
Sensor: Nr:Datum:Temp:Abs-Feuchte:Windchill:Wind:
Aussen-T/F 876 09-07-2014 07:20:00 11.8 C 9.89 g/m*3 11.8 C 4.8 km/h
877 09-07-2014 07:25:00 11.8 C 9.89 g/m*3 11.8 C 4.8 km/h
878 09-07-2014 07:30:00 11.8 C 10 g/m*3 11.8 C 6.4 km/h
879 09-07-2014 07:35:00 11.8 C 10 g/m*3 11.8 C 1.6 km/h
880 09-07-2014 07:40:00 11.8 C 10 g/m*3 11.8 C 1.6 km/h
881 09-07-2014 07:45:00 11.8 C 10 g/m*3 11.8 C 9.7 km/h
882 09-07-2014 07:50:00 11.8 C 10 g/m*3 11.8 C 3.2 km/h
883 09-07-2014 07:55:00 11.8 C 10 g/m*3 11.8 C 3.2 km/h
884 09-07-2014 08:00:00 11.7 C 9.94 g/m*3 11.7 C 3.2 km/h
885 09-07-2014 08:05:00 11.8 C 10 g/m*3 11.8 C 3.2 km/h
886 09-07-2014 08:10:00 11.8 C 10 g/m*3 11.8 C 1.6 km/h
887 09-07-2014 08:15:00 11.8 C 10 g/m*3 11.8 C 3.2 km/h
888 09-07-2014 08:20:00 11.8 C 10 g/m*3 11.8 C 4.8 km/h
889 09-07-2014 08:25:00 11.8 C 10 g/m*3 11.8 C 8.1 km/h
890 09-07-2014 08:30:00 11.8 C 10.1 g/m*3 11.8 C 3.2 km/h
891 09-07-2014 08:35:00 11.9 C 10.17 g/m*3 11.9 C 3.2 km/h
892 09-07-2014 08:40:00 11.9 C 10.17 g/m*3 11.9 C 1.6 km/h
893 09-07-2014 08:45:00 11.9 C 10.17 g/m*3 11.9 C 3.2 km/h
894 09-07-2014 08:50:00 11.9 C 10.17 g/m*3 11.9 C 12.9 km/h
895 09-07-2014 08:55:00 11.9 C 10.17 g/m*3 11.9 C 4.8 km/h
896 09-07-2014 09:00:00 12 C 10.23 g/m*3 12 C 8.1 km/h
897 09-07-2014 09:05:00 12 C 10.23 g/m*3 12 C 3.2 km/h
898 09-07-2014 09:10:00 12 C 10.23 g/m*3 12 C 6.4 km/h
899 09-07-2014 09:15:00 12.1 C 10.19 g/m*3 12.1 C 4.8 km/h
900 09-07-2014 09:20:00 12.1 C 10.29 g/m*3 12.1 C 6.4 km/h
Sensor: Nr:Datum:Temp:Abs-Feuchte:Windchill:Wind:
Aussen-T/F 901 09-07-2014 09:25:00 12.1 C 10.19 g/m*3 12.1 C 6.4 km/h
902 09-07-2014 09:30:00 12.2 C 10.25 g/m*3 12.2 C 6.4 km/h
903 09-07-2014 09:35:00 12.2 C 10.25 g/m*3 12.2 C 6.4 km/h
904 09-07-2014 09:40:00 12.2 C 10.25 g/m*3 12.2 C 3.2 km/h
905 09-07-2014 09:45:00 12.2 C 10.25 g/m*3 12.2 C 1.6 km/h
906 09-07-2014 09:50:00 12.2 C 10.25 g/m*3 12.2 C 4.8 km/h
907 09-07-2014 09:55:00 12.2 C 10.25 g/m*3 12.2 C 1.6 km/h
908 09-07-2014 10:00:00 12.3 C 10.32 g/m*3 12.3 C 0 km/h
909 09-07-2014 10:05:00 12.3 C 10.32 g/m*3 12.3 C 6.4 km/h
910 09-07-2014 10:10:00 12.3 C 10.32 g/m*3 12.3 C 4.8 km/h
911 09-07-2014 10:15:00 12.3 C 10.32 g/m*3 12.3 C 1.6 km/h
912 09-07-2014 10:20:00 12.3 C 10.32 g/m*3 12.3 C 1.6 km/h
913 09-07-2014 10:25:00 12.3 C 10.42 g/m*3 12.3 C 1.6 km/h
914 09-07-2014 10:30:00 12.3 C 10.42 g/m*3 12.3 C 1.6 km/h
915 09-07-2014 10:35:00 12.3 C 10.42 g/m*3 12.3 C 1.6 km/h
916 09-07-2014 10:40:00 12.4 C 10.49 g/m*3 12.4 C 4.8 km/h
917 09-07-2014 10:45:00 12.4 C 10.49 g/m*3 12.4 C 0 km/h
918 09-07-2014 10:50:00 12.4 C 10.49 g/m*3 12.4 C 3.2 km/h
919 09-07-2014 10:55:00 12.4 C 10.49 g/m*3 12.4 C 8.1 km/h
920 09-07-2014 11:00:00 12.5 C 10.55 g/m*3 12.5 C 4.8 km/h
921 09-07-2014 11:05:00 12.6 C 10.62 g/m*3 12.6 C 3.2 km/h
922 09-07-2014 11:10:00 12.6 C 10.62 g/m*3 12.6 C 1.6 km/h
923 09-07-2014 11:15:00 12.6 C 10.62 g/m*3 12.6 C 6.4 km/h
924 09-07-2014 11:20:00 12.6 C 10.62 g/m*3 12.6 C 3.2 km/h
925 09-07-2014 11:25:00 12.6 C 10.62 g/m*3 12.6 C 4.8 km/h
Sensor: Nr:Datum:Temp:Abs-Feuchte:Windchill:Wind:
Aussen-T/F 926 09-07-2014 11:30:00 12.6 C 10.62 g/m*3 12.6 C 6.4 km/h
927 09-07-2014 11:35:00 12.7 C 10.69 g/m*3 12.7 C 14.5 km/h
928 09-07-2014 11:40:00 12.7 C 10.69 g/m*3 12.7 C 8.1 km/h
929 09-07-2014 11:45:00 12.8 C 10.75 g/m*3 12.8 C 3.2 km/h
930 09-07-2014 11:50:00 12.8 C 10.75 g/m*3 12.8 C 9.7 km/h
931 09-07-2014 11:55:00 12.9 C 10.71 g/m*3 12.9 C 11.3 km/h
932 09-07-2014 12:00:00 12.9 C 10.71 g/m*3 12.9 C 8.1 km/h
933 09-07-2014 12:05:00 12.9 C 10.71 g/m*3 12.9 C 6.4 km/h
934 09-07-2014 12:10:00 13 C 10.77 g/m*3 13 C 11.3 km/h
935 09-07-2014 12:15:00 13.1 C 10.84 g/m*3 13.1 C 4.8 km/h
936 09-07-2014 12:20:00 13.1 C 10.84 g/m*3 13.1 C 9.7 km/h
937 09-07-2014 12:25:00 13.2 C 10.91 g/m*3 13.2 C 9.7 km/h
938 09-07-2014 12:30:00 13.2 C 10.91 g/m*3 13.2 C 6.4 km/h
939 09-07-2014 12:35:00 13.2 C 10.91 g/m*3 13.2 C 8.1 km/h
940 09-07-2014 12:40:00 13.2 C 10.91 g/m*3 13.2 C 9.7 km/h
941 09-07-2014 12:45:00 13.2 C 10.91 g/m*3 13.2 C 3.2 km/h
942 09-07-2014 12:50:00 13.2 C 10.91 g/m*3 13.2 C 8.1 km/h
943 09-07-2014 12:55:00 13.3 C 10.98 g/m*3 13.3 C 1.6 km/h
944 09-07-2014 13:00:00 13.3 C 10.98 g/m*3 13.3 C 4.8 km/h
945 09-07-2014 13:05:00 13.3 C 10.98 g/m*3 13.3 C 8.1 km/h
946 09-07-2014 13:10:00 13.3 C 10.98 g/m*3 13.3 C 8.1 km/h
947 09-07-2014 13:15:00 13.3 C 10.98 g/m*3 13.3 C 12.9 km/h
948 09-07-2014 13:20:00 13.3 C 10.98 g/m*3 13.3 C 6.4 km/h
949 09-07-2014 13:25:00 13.3 C 10.86 g/m*3 13.3 C 3.2 km/h
950 09-07-2014 13:30:00 13.4 C 11.04 g/m*3 13.4 C 6.4 km/h
Sensor: Nr:Datum:Temp:Abs-Feuchte:Windchill:Wind:
Aussen-T/F 951 09-07-2014 13:35:00 13.4 C 11.04 g/m*3 13.4 C 8.1 km/h
952 09-07-2014 13:40:00 13.4 C 11.04 g/m*3 13.4 C 3.2 km/h
953 09-07-2014 13:45:00 13.4 C 11.04 g/m*3 13.4 C 11.3 km/h
954 09-07-2014 13:50:00 13.4 C 11.04 g/m*3 13.4 C 8.1 km/h
955 09-07-2014 13:55:00 13.5 C 11.11 g/m*3 13.5 C 3.2 km/h
956 09-07-2014 14:00:00 13.6 C 11.18 g/m*3 13.6 C 4.8 km/h
957 09-07-2014 14:05:00 13.6 C 11.18 g/m*3 13.6 C 3.2 km/h
958 09-07-2014 14:10:00 13.7 C 11.25 g/m*3 13.7 C 4.8 km/h
959 09-07-2014 14:15:00 13.7 C 11.25 g/m*3 13.7 C 6.4 km/h
960 09-07-2014 14:20:00 13.7 C 11.25 g/m*3 13.7 C 4.8 km/h
961 09-07-2014 14:25:00 13.7 C 11.25 g/m*3 13.7 C 6.4 km/h
962 09-07-2014 14:30:00 13.8 C 11.2 g/m*3 13.8 C 6.4 km/h
963 09-07-2014 14:35:00 13.9 C 11.27 g/m*3 13.9 C 9.7 km/h
964 09-07-2014 14:40:00 13.9 C 11.27 g/m*3 13.9 C 4.8 km/h
965 09-07-2014 14:45:00 13.9 C 11.27 g/m*3 13.9 C 11.3 km/h
966 09-07-2014 14:50:00 13.9 C 11.27 g/m*3 13.9 C 12.9 km/h
967 09-07-2014 14:55:00 13.9 C 11.27 g/m*3 13.9 C 12.9 km/h
968 09-07-2014 15:00:00 13.9 C 11.27 g/m*3 13.9 C 8.1 km/h
969 09-07-2014 15:05:00 13.9 C 11.27 g/m*3 13.9 C 9.7 km/h
970 09-07-2014 15:10:00 13.9 C 11.39 g/m*3 13.9 C 4.8 km/h
971 09-07-2014 15:15:00 13.9 C 11.39 g/m*3 13.9 C 14.5 km/h
972 09-07-2014 15:20:00 14 C 11.46 g/m*3 14 C 9.7 km/h
973 09-07-2014 15:25:00 14 C 11.34 g/m*3 14 C 11.3 km/h
974 09-07-2014 15:30:00 14 C 11.46 g/m*3 14 C 6.4 km/h
975 09-07-2014 15:35:00 14 C 11.46 g/m*3 14 C 4.8 km/h
Sensor: Nr:Datum:Temp:Abs-Feuchte:Windchill:Wind:
Aussen-T/F 976 09-07-2014 15:40:00 14.1 C 11.53 g/m*3 14.1 C 3.2 km/h
977 09-07-2014 15:45:00 14.1 C 11.53 g/m*3 14.1 C 8.1 km/h
978 09-07-2014 15:50:00 14 C 11.46 g/m*3 14 C 9.7 km/h
979 09-07-2014 15:55:00 14 C 11.46 g/m*3 14 C 8.1 km/h
980 09-07-2014 16:00:00 14 C 11.46 g/m*3 14 C 8.1 km/h
981 09-07-2014 16:05:00 14 C 11.46 g/m*3 14 C 11.3 km/h
982 09-07-2014 16:10:00 14 C 11.46 g/m*3 14 C 9.7 km/h
983 09-07-2014 16:15:00 14 C 11.46 g/m*3 14 C 9.7 km/h
984 09-07-2014 16:20:00 14 C 11.46 g/m*3 14 C 6.4 km/h
985 09-07-2014 16:25:00 14 C 11.46 g/m*3 14 C 8.1 km/h
986 09-07-2014 16:30:00 14.1 C 11.53 g/m*3 14.1 C 6.4 km/h
987 09-07-2014 16:35:00 14.1 C 11.53 g/m*3 14.1 C 11.3 km/h
988 09-07-2014 16:40:00 14.1 C 11.53 g/m*3 14.1 C 11.3 km/h
989 09-07-2014 16:45:00 14 C 11.46 g/m*3 14 C 9.7 km/h
990 09-07-2014 16:50:00 13.9 C 11.39 g/m*3 13.9 C 6.4 km/h
991 09-07-2014 16:55:00 13.9 C 11.39 g/m*3 13.9 C 4.8 km/h
992 09-07-2014 17:00:00 14 C 11.46 g/m*3 14 C 9.7 km/h
993 09-07-2014 17:05:00 13.9 C 11.39 g/m*3 13.9 C 8.1 km/h
994 09-07-2014 17:10:00 13.9 C 11.39 g/m*3 13.9 C 4.8 km/h
995 09-07-2014 17:15:00 13.9 C 11.39 g/m*3 13.9 C 8.1 km/h
996 09-07-2014 17:20:00 13.9 C 11.39 g/m*3 13.9 C 3.2 km/h
997 09-07-2014 17:25:00 13.9 C 11.39 g/m*3 13.9 C 3.2 km/h
998 09-07-2014 17:30:00 13.9 C 11.39 g/m*3 13.9 C 4.8 km/h
999 09-07-2014 17:35:00 13.9 C 11.39 g/m*3 13.9 C 6.4 km/h
1000 09-07-2014 17:40:00 14 C 11.46 g/m*3 14 C 9.7 km/h
Sensor: Nr:Datum:Temp:Abs-Feuchte:Windchill:Wind:
Aussen-T/F 1001 09-07-2014 17:45:00 14 C 11.46 g/m*3 14 C 6.4 km/h
1002 09-07-2014 17:50:00 14 C 11.46 g/m*3 14 C 4.8 km/h
1003 09-07-2014 17:55:00 14.1 C 11.53 g/m*3 14.1 C 9.7 km/h
1004 09-07-2014 18:00:00 14.1 C 11.53 g/m*3 14.1 C 6.4 km/h
1005 09-07-2014 18:05:00 14 C 11.46 g/m*3 14 C 4.8 km/h
1006 09-07-2014 18:10:00 14.1 C 11.53 g/m*3 14.1 C 3.2 km/h
1007 09-07-2014 18:15:00 14 C 11.46 g/m*3 14 C 8.1 km/h
1008 09-07-2014 18:20:00 14 C 11.46 g/m*3 14 C 3.2 km/h
1009 09-07-2014 18:25:00 14 C 11.46 g/m*3 14 C 1.6 km/h
1010 09-07-2014 18:30:00 13.9 C 11.39 g/m*3 13.9 C 6.4 km/h
1011 09-07-2014 18:35:00 13.9 C 11.39 g/m*3 13.9 C 1.6 km/h
1012 09-07-2014 18:40:00 13.9 C 11.39 g/m*3 13.9 C 3.2 km/h
1013 09-07-2014 18:45:00 13.9 C 11.39 g/m*3 13.9 C 1.6 km/h
1014 09-07-2014 18:50:00 13.9 C 11.39 g/m*3 13.9 C 1.6 km/h
1015 09-07-2014 18:55:00 13.9 C 11.39 g/m*3 13.9 C 0 km/h
1016 09-07-2014 19:00:00 13.9 C 11.39 g/m*3 13.9 C 1.6 km/h
1017 09-07-2014 19:05:00 13.9 C 11.39 g/m*3 13.9 C 1.6 km/h
1018 09-07-2014 19:10:00 13.9 C 11.39 g/m*3 13.9 C 0 km/h
1019 09-07-2014 19:15:00 13.9 C 11.39 g/m*3 13.9 C 3.2 km/h
1020 09-07-2014 19:20:00 13.9 C 11.39 g/m*3 13.9 C 1.6 km/h
1021 09-07-2014 19:25:00 13.9 C 11.39 g/m*3 13.9 C 6.4 km/h
1022 09-07-2014 19:30:00 13.9 C 11.39 g/m*3 13.9 C 3.2 km/h
1023 09-07-2014 19:35:00 13.9 C 11.51 g/m*3 13.9 C 4.8 km/h
1024 09-07-2014 19:40:00 13.9 C 11.51 g/m*3 13.9 C 3.2 km/h
1025 09-07-2014 19:45:00 13.9 C 11.51 g/m*3 13.9 C 3.2 km/h
Sensor: Nr:Datum:Temp:Abs-Feuchte:Windchill:Wind:
Aussen-T/F 1026 09-07-2014 19:50:00 13.9 C 11.51 g/m*3 13.9 C 0 km/h
1027 09-07-2014 19:55:00 13.9 C 11.51 g/m*3 13.9 C 6.4 km/h
1028 09-07-2014 20:00:00 14 C 11.58 g/m*3 14 C 4.8 km/h
1029 09-07-2014 20:05:00 14 C 11.58 g/m*3 14 C 0 km/h
1030 09-07-2014 20:10:00 14 C 11.58 g/m*3 14 C 3.2 km/h
1031 09-07-2014 20:15:00 14 C 11.58 g/m*3 14 C 0 km/h
1032 09-07-2014 20:20:00 14 C 11.58 g/m*3 14 C 1.6 km/h
1033 09-07-2014 20:25:00 14 C 11.58 g/m*3 14 C 0 km/h
1034 09-07-2014 20:30:00 14 C 11.58 g/m*3 14 C 0 km/h
1035 09-07-2014 20:35:00 14 C 11.58 g/m*3 14 C 0 km/h
1036 09-07-2014 20:40:00 14 C 11.58 g/m*3 14 C 0 km/h
1037 09-07-2014 20:45:00 13.9 C 11.51 g/m*3 13.9 C 0 km/h
1038 09-07-2014 20:50:00 13.9 C 11.51 g/m*3 13.9 C 0 km/h
1039 09-07-2014 20:55:00 13.9 C 11.51 g/m*3 13.9 C 1.6 km/h
1040 09-07-2014 21:00:00 13.9 C 11.51 g/m*3 13.9 C 0 km/h
1041 09-07-2014 21:05:00 13.9 C 11.51 g/m*3 13.9 C 1.6 km/h
1042 09-07-2014 21:10:00 13.9 C 11.51 g/m*3 13.9 C 0 km/h
1043 09-07-2014 21:15:00 13.9 C 11.51 g/m*3 13.9 C 0 km/h
1044 09-07-2014 21:20:00 13.9 C 11.51 g/m*3 13.9 C 0 km/h
1045 09-07-2014 21:25:00 13.9 C 11.51 g/m*3 13.9 C 0 km/h
1046 09-07-2014 21:30:00 13.9 C 11.51 g/m*3 13.9 C 0 km/h
1047 09-07-2014 21:35:00 13.9 C 11.51 g/m*3 13.9 C 3.2 km/h
1048 09-07-2014 21:40:00 13.9 C 11.63 g/m*3 13.9 C 0 km/h
1049 09-07-2014 21:45:00 13.9 C 11.63 g/m*3 13.9 C 0 km/h
1050 09-07-2014 21:50:00 13.9 C 11.63 g/m*3 13.9 C 0 km/h
Sensor: Nr:Datum:Temp:Abs-Feuchte:Windchill:Wind:
Aussen-T/F 1051 09-07-2014 21:55:00 13.9 C 11.63 g/m*3 13.9 C 0 km/h
1052 09-07-2014 22:00:00 13.8 C 11.56 g/m*3 13.8 C 0 km/h
1053 09-07-2014 22:05:00 13.8 C 11.56 g/m*3 13.8 C 0 km/h
1054 09-07-2014 22:10:00 13.8 C 11.56 g/m*3 13.8 C 0 km/h
1055 09-07-2014 22:15:00 13.8 C 11.56 g/m*3 13.8 C 0 km/h
1056 09-07-2014 22:20:00 13.8 C 11.56 g/m*3 13.8 C 0 km/h
1057 09-07-2014 22:25:00 13.8 C 11.56 g/m*3 13.8 C 0 km/h
1058 09-07-2014 22:30:00 13.8 C 11.56 g/m*3 13.8 C 0 km/h
1059 09-07-2014 22:35:00 13.8 C 11.56 g/m*3 13.8 C 0 km/h
1060 09-07-2014 22:40:00 13.8 C 11.56 g/m*3 13.8 C 0 km/h
1061 09-07-2014 22:45:00 13.8 C 11.56 g/m*3 13.8 C 0 km/h
1062 09-07-2014 22:50:00 13.8 C 11.56 g/m*3 13.8 C 0 km/h
1063 09-07-2014 22:55:00 13.8 C 11.56 g/m*3 13.8 C 0 km/h
1064 09-07-2014 23:00:00 13.8 C 11.56 g/m*3 13.8 C 0 km/h
1065 09-07-2014 23:05:00 13.8 C 11.56 g/m*3 13.8 C 0 km/h
1066 09-07-2014 23:10:00 13.8 C 11.56 g/m*3 13.8 C 0 km/h
1067 09-07-2014 23:15:00 13.8 C 11.56 g/m*3 13.8 C 0 km/h
1068 09-07-2014 23:20:00 13.7 C 11.49 g/m*3 13.7 C 0 km/h
1069 09-07-2014 23:25:00 13.7 C 11.49 g/m*3 13.7 C 0 km/h
1070 09-07-2014 23:30:00 13.7 C 11.49 g/m*3 13.7 C 0 km/h
1071 09-07-2014 23:35:00 13.7 C 11.49 g/m*3 13.7 C 0 km/h
1072 09-07-2014 23:40:00 13.7 C 11.49 g/m*3 13.7 C 0 km/h
1073 09-07-2014 23:45:00 13.7 C 11.49 g/m*3 13.7 C 0 km/h
1074 09-07-2014 23:50:00 13.7 C 11.49 g/m*3 13.7 C 0 km/h
1075 09-07-2014 23:55:00 13.7 C 11.49 g/m*3 13.7 C 0 km/h
Sensor: Nr:Datum:Temp:Abs-Feuchte:Windchill:Wind:
Aussen-T/F 1076 10-07-2014 00:00:00 13.7 C 11.49 g/m*3 13.7 C 0 km/h
1077 10-07-2014 00:05:00 13.7 C 11.49 g/m*3 13.7 C 0 km/h
1078 10-07-2014 00:10:00 13.7 C 11.49 g/m*3 13.7 C 0 km/h
1079 10-07-2014 00:15:00 13.7 C 11.49 g/m*3 13.7 C 0 km/h
1080 10-07-2014 00:20:00 13.7 C 11.49 g/m*3 13.7 C 0 km/h
1081 10-07-2014 00:25:00 13.7 C 11.49 g/m*3 13.7 C 0 km/h
1082 10-07-2014 00:30:00 13.7 C 11.49 g/m*3 13.7 C 0 km/h
1083 10-07-2014 00:35:00 13.8 C 11.56 g/m*3 13.8 C 0 km/h
1084 10-07-2014 00:40:00 13.8 C 11.56 g/m*3 13.8 C 0 km/h
1085 10-07-2014 00:45:00 13.7 C 11.49 g/m*3 13.7 C 0 km/h
1086 10-07-2014 00:50:00 13.7 C 11.49 g/m*3 13.7 C 0 km/h
1087 10-07-2014 00:55:00 13.7 C 11.49 g/m*3 13.7 C 0 km/h
1088 10-07-2014 01:00:00 13.7 C 11.49 g/m*3 13.7 C 0 km/h
1089 10-07-2014 01:05:00 13.7 C 11.6 g/m*3 13.7 C 0 km/h
1090 10-07-2014 01:10:00 13.7 C 11.6 g/m*3 13.7 C 0 km/h
1091 10-07-2014 01:15:00 13.7 C 11.6 g/m*3 13.7 C 0 km/h
1092 10-07-2014 01:20:00 13.7 C 11.6 g/m*3 13.7 C 0 km/h
1093 10-07-2014 01:25:00 13.7 C 11.6 g/m*3 13.7 C 0 km/h
1094 10-07-2014 01:30:00 13.7 C 11.6 g/m*3 13.7 C 0 km/h
1095 10-07-2014 01:35:00 13.7 C 11.6 g/m*3 13.7 C 0 km/h
1096 10-07-2014 01:40:00 13.7 C 11.6 g/m*3 13.7 C 0 km/h
1097 10-07-2014 01:45:00 13.7 C 11.6 g/m*3 13.7 C 0 km/h
1098 10-07-2014 01:50:00 13.7 C 11.6 g/m*3 13.7 C 0 km/h
1099 10-07-2014 01:55:00 13.7 C 11.6 g/m*3 13.7 C 0 km/h
1100 10-07-2014 02:00:00 13.7 C 11.6 g/m*3 13.7 C 0 km/h
Sensor: Nr:Datum:Temp:Abs-Feuchte:Windchill:Wind:
Aussen-T/F 1101 10-07-2014 02:05:00 13.7 C 11.6 g/m*3 13.7 C 0 km/h
1102 10-07-2014 02:10:00 13.7 C 11.6 g/m*3 13.7 C 0 km/h
1103 10-07-2014 02:15:00 13.7 C 11.6 g/m*3 13.7 C 0 km/h
1104 10-07-2014 02:20:00 13.7 C 11.6 g/m*3 13.7 C 0 km/h
1105 10-07-2014 02:25:00 13.7 C 11.6 g/m*3 13.7 C 0 km/h
1106 10-07-2014 02:30:00 13.7 C 11.6 g/m*3 13.7 C 0 km/h
1107 10-07-2014 02:35:00 13.7 C 11.6 g/m*3 13.7 C 0 km/h
1108 10-07-2014 02:40:00 13.7 C 11.6 g/m*3 13.7 C 0 km/h
1109 10-07-2014 02:45:00 13.7 C 11.6 g/m*3 13.7 C 0 km/h
1110 10-07-2014 02:50:00 13.7 C 11.6 g/m*3 13.7 C 0 km/h
1111 10-07-2014 02:55:00 13.8 C 11.68 g/m*3 13.8 C 0 km/h
1112 10-07-2014 03:00:00 13.8 C 11.68 g/m*3 13.8 C 0 km/h
1113 10-07-2014 03:05:00 13.8 C 11.68 g/m*3 13.8 C 0 km/h
1114 10-07-2014 03:10:00 13.8 C 11.68 g/m*3 13.8 C 0 km/h
1115 10-07-2014 03:15:00 13.8 C 11.68 g/m*3 13.8 C 0 km/h
1116 10-07-2014 03:20:00 13.8 C 11.68 g/m*3 13.8 C 0 km/h
1117 10-07-2014 03:25:00 13.8 C 11.68 g/m*3 13.8 C 0 km/h
1118 10-07-2014 03:30:00 13.8 C 11.68 g/m*3 13.8 C 0 km/h
1119 10-07-2014 03:35:00 13.8 C 11.68 g/m*3 13.8 C 0 km/h
1120 10-07-2014 03:40:00 13.8 C 11.68 g/m*3 13.8 C 0 km/h
1121 10-07-2014 03:45:00 13.8 C 11.68 g/m*3 13.8 C 0 km/h
1122 10-07-2014 03:50:00 13.8 C 11.68 g/m*3 13.8 C 0 km/h
1123 10-07-2014 03:55:00 13.8 C 11.68 g/m*3 13.8 C 0 km/h
1124 10-07-2014 04:00:00 13.8 C 11.68 g/m*3 13.8 C 0 km/h
1125 10-07-2014 04:05:00 13.8 C 11.68 g/m*3 13.8 C 0 km/h
Sensor: Nr:Datum:Temp:Abs-Feuchte:Windchill:Wind:
Aussen-T/F 1126 10-07-2014 04:10:00 13.8 C 11.68 g/m*3 13.8 C 0 km/h
1127 10-07-2014 04:15:00 13.8 C 11.68 g/m*3 13.8 C 0 km/h
1128 10-07-2014 04:20:00 13.8 C 11.68 g/m*3 13.8 C 0 km/h
1129 10-07-2014 04:25:00 13.8 C 11.68 g/m*3 13.8 C 0 km/h
1130 10-07-2014 04:30:00 13.8 C 11.68 g/m*3 13.8 C 0 km/h
1131 10-07-2014 04:35:00 13.8 C 11.68 g/m*3 13.8 C 0 km/h
1132 10-07-2014 04:40:00 13.8 C 11.68 g/m*3 13.8 C 0 km/h
1133 10-07-2014 04:45:00 13.8 C 11.68 g/m*3 13.8 C 0 km/h
1134 10-07-2014 04:50:00 13.8 C 11.68 g/m*3 13.8 C 0 km/h
1135 10-07-2014 04:55:00 13.8 C 11.68 g/m*3 13.8 C 0 km/h
1136 10-07-2014 05:00:00 13.8 C 11.68 g/m*3 13.8 C 0 km/h
1137 10-07-2014 05:05:00 13.8 C 11.68 g/m*3 13.8 C 0 km/h
1138 10-07-2014 05:10:00 13.7 C 11.6 g/m*3 13.7 C 0 km/h
1139 10-07-2014 05:15:00 13.7 C 11.6 g/m*3 13.7 C 1.6 km/h
1140 10-07-2014 05:20:00 13.7 C 11.6 g/m*3 13.7 C 0 km/h
1141 10-07-2014 05:25:00 13.6 C 11.53 g/m*3 13.6 C 0 km/h
1142 10-07-2014 05:30:00 13.6 C 11.53 g/m*3 13.6 C 0 km/h
1143 10-07-2014 05:35:00 13.6 C 11.53 g/m*3 13.6 C 0 km/h
1144 10-07-2014 05:40:00 13.7 C 11.6 g/m*3 13.7 C 0 km/h
1145 10-07-2014 05:45:00 13.7 C 11.6 g/m*3 13.7 C 0 km/h
1146 10-07-2014 05:50:00 13.7 C 11.6 g/m*3 13.7 C 0 km/h
1147 10-07-2014 05:55:00 13.7 C 11.6 g/m*3 13.7 C 0 km/h
1148 10-07-2014 06:00:00 13.7 C 11.6 g/m*3 13.7 C 0 km/h
1149 10-07-2014 06:05:00 13.6 C 11.53 g/m*3 13.6 C 0 km/h
1150 10-07-2014 06:10:00 13.7 C 11.6 g/m*3 13.7 C 0 km/h
Sensor: Nr:Datum:Temp:Abs-Feuchte:Windchill:Wind:
Aussen-T/F 1151 10-07-2014 06:15:00 13.7 C 11.6 g/m*3 13.7 C 0 km/h
1152 10-07-2014 06:20:00 13.7 C 11.6 g/m*3 13.7 C 0 km/h
1153 10-07-2014 06:25:00 13.7 C 11.6 g/m*3 13.7 C 0 km/h
1154 10-07-2014 06:30:00 13.8 C 11.68 g/m*3 13.8 C 0 km/h
1155 10-07-2014 06:35:00 13.8 C 11.68 g/m*3 13.8 C 0 km/h
1156 10-07-2014 06:40:00 13.8 C 11.68 g/m*3 13.8 C 0 km/h
1157 10-07-2014 06:45:00 13.8 C 11.68 g/m*3 13.8 C 0 km/h
1158 10-07-2014 06:50:00 13.9 C 11.75 g/m*3 13.9 C 0 km/h
1159 10-07-2014 06:55:00 13.9 C 11.75 g/m*3 13.9 C 0 km/h
1160 10-07-2014 07:00:00 14 C 11.82 g/m*3 14 C 0 km/h
1161 10-07-2014 07:05:00 14.1 C 11.89 g/m*3 14.1 C 0 km/h
1162 10-07-2014 07:10:00 14.1 C 11.89 g/m*3 14.1 C 0 km/h
1163 10-07-2014 07:15:00 14.2 C 11.97 g/m*3 14.2 C 0 km/h
1164 10-07-2014 07:20:00 14.2 C 11.97 g/m*3 14.2 C 0 km/h
1165 10-07-2014 07:25:00 14.3 C 12.04 g/m*3 14.3 C 0 km/h
1166 10-07-2014 07:30:00 14.3 C 12.04 g/m*3 14.3 C 0 km/h
1167 10-07-2014 07:35:00 14.3 C 12.04 g/m*3 14.3 C 0 km/h
1168 10-07-2014 07:40:00 14.3 C 12.04 g/m*3 14.3 C 0 km/h
1169 10-07-2014 07:45:00 14.4 C 12.11 g/m*3 14.4 C 0 km/h
1170 10-07-2014 07:50:00 14.4 C 12.11 g/m*3 14.4 C 0 km/h
1171 10-07-2014 07:55:00 14.3 C 12.04 g/m*3 14.3 C 0 km/h
1172 10-07-2014 08:00:00 14.3 C 12.04 g/m*3 14.3 C 0 km/h
1173 10-07-2014 08:05:00 14.4 C 12.11 g/m*3 14.4 C 0 km/h
1174 10-07-2014 08:10:00 14.5 C 12.19 g/m*3 14.5 C 0 km/h
1175 10-07-2014 08:15:00 14.4 C 12.11 g/m*3 14.4 C 0 km/h
Sensor: Nr:Datum:Temp:Abs-Feuchte:Windchill:Wind:
Aussen-T/F 1176 10-07-2014 08:20:00 14.4 C 12.11 g/m*3 14.4 C 0 km/h
1177 10-07-2014 11:30:00 17.8 C 13.05 g/m*3 17.8 C 6.4 km/h
1178 10-07-2014 11:35:00 17.8 C 13.05 g/m*3 17.8 C 0 km/h
1179 10-07-2014 11:40:00 17.8 C 13.2 g/m*3 17.8 C 8.1 km/h
1180 10-07-2014 11:45:00 17.8 C 13.05 g/m*3 17.8 C 4.8 km/h
1181 10-07-2014 11:50:00 17.9 C 13.28 g/m*3 17.9 C 4.8 km/h
1182 10-07-2014 11:55:00 18.1 C 13.44 g/m*3 18.1 C 6.4 km/h
1183 10-07-2014 12:00:00 18.2 C 13.52 g/m*3 18.2 C 6.4 km/h
1184 10-07-2014 12:05:00 18.4 C 13.37 g/m*3 18.4 C 4.8 km/h
1185 10-07-2014 12:10:00 18.4 C 13.37 g/m*3 18.4 C 8.1 km/h
1186 10-07-2014 12:15:00 18.4 C 13.37 g/m*3 18.4 C 6.4 km/h
1187 10-07-2014 12:20:00 18.4 C 13.37 g/m*3 18.4 C 4.8 km/h
1188 10-07-2014 12:25:00 18.5 C 13.45 g/m*3 18.5 C 1.6 km/h
1189 10-07-2014 12:30:00 18.5 C 13.61 g/m*3 18.5 C 0 km/h
1190 10-07-2014 12:35:00 18.5 C 13.61 g/m*3 18.5 C 0 km/h
1191 10-07-2014 12:40:00 18.4 C 14 g/m*3 18.4 C 0 km/h
1192 10-07-2014 12:45:00 18.4 C 13.84 g/m*3 18.4 C 3.2 km/h
1193 10-07-2014 12:50:00 18.7 C 13.93 g/m*3 18.7 C 3.2 km/h
1194 10-07-2014 12:55:00 19.1 C 14.1 g/m*3 19.1 C 8.1 km/h
1195 10-07-2014 13:00:00 19.3 C 13.93 g/m*3 19.3 C 4.8 km/h
1196 10-07-2014 13:05:00 19.5 C 13.76 g/m*3 19.5 C 6.4 km/h
1197 10-07-2014 13:10:00 19.7 C 14.26 g/m*3 19.7 C 8.1 km/h
1198 10-07-2014 13:15:00 19.9 C 14.26 g/m*3 19.9 C 8.1 km/h
1199 10-07-2014 13:20:00 20.1 C 14.08 g/m*3 20.1 C 9.7 km/h
1200 10-07-2014 13:25:00 20.2 C 14.34 g/m*3 20.2 C 4.8 km/h
Sensor: Nr:Datum:Temp:Abs-Feuchte:Windchill:Wind:
Aussen-T/F 1201 10-07-2014 13:30:00 20.2 C 14.34 g/m*3 20.2 C 6.4 km/h
1202 10-07-2014 13:35:00 20.3 C 14.25 g/m*3 20.3 C 4.8 km/h
1203 10-07-2014 13:40:00 20.3 C 14.25 g/m*3 20.3 C 6.4 km/h
1204 10-07-2014 13:45:00 20.3 C 14.42 g/m*3 20.3 C 4.8 km/h
1205 10-07-2014 13:50:00 20.4 C 14.51 g/m*3 20.4 C 3.2 km/h
1206 10-07-2014 13:55:00 20.6 C 14.5 g/m*3 20.6 C 4.8 km/h
1207 10-07-2014 14:00:00 20.7 C 14.4 g/m*3 20.7 C 6.4 km/h
1208 10-07-2014 14:05:00 20.8 C 14.3 g/m*3 20.8 C 4.8 km/h
1209 10-07-2014 14:10:00 20.8 C 14.3 g/m*3 20.8 C 3.2 km/h
1210 10-07-2014 14:35:00 22.6 C 14.87 g/m*3 22.6 C 4.8 km/h
1211 10-07-2014 14:40:00 22.8 C 15.65 g/m*3 22.8 C 4.8 km/h
1212 10-07-2014 14:45:00 22.9 C 14.71 g/m*3 22.9 C 3.2 km/h
1213 10-07-2014 14:50:00 22.8 C 14.63 g/m*3 22.8 C 8.1 km/h
1214 10-07-2014 14:55:00 22.8 C 14.83 g/m*3 22.8 C 6.4 km/h
1215 10-07-2014 15:00:00 22.8 C 15.24 g/m*3 22.8 C 6.4 km/h
1216 10-07-2014 15:05:00 23.2 C 15.38 g/m*3 23.2 C 4.8 km/h
1217 10-07-2014 15:10:00 23.5 C 15.44 g/m*3 23.5 C 8.1 km/h
1218 10-07-2014 15:15:00 23.6 C 14.89 g/m*3 23.6 C 6.4 km/h
1219 10-07-2014 15:20:00 23.8 C 15.7 g/m*3 23.8 C 6.4 km/h
1220 10-07-2014 15:25:00 23.8 C 15.49 g/m*3 23.8 C 8.1 km/h
1221 10-07-2014 15:30:00 23.8 C 15.49 g/m*3 23.8 C 6.4 km/h
1222 10-07-2014 15:35:00 23.8 C 15.49 g/m*3 23.8 C 8.1 km/h
1223 10-07-2014 15:40:00 23.9 C 15.58 g/m*3 23.9 C 6.4 km/h
1224 10-07-2014 15:45:00 23.8 C 15.27 g/m*3 23.8 C 4.8 km/h
1225 10-07-2014 15:50:00 23.7 C 15.19 g/m*3 23.7 C 11.3 km/h
Sensor: Nr:Datum:Temp:Abs-Feuchte:Windchill:Wind:
Aussen-T/F 1226 10-07-2014 15:55:00 23.8 C 15.49 g/m*3 23.8 C 4.8 km/h
1227 10-07-2014 16:00:00 24 C 15.45 g/m*3 24 C 8.1 km/h
1228 10-07-2014 16:05:00 23.9 C 14.93 g/m*3 23.9 C 6.4 km/h
1229 10-07-2014 16:10:00 23.8 C 15.27 g/m*3 23.8 C 8.1 km/h
1230 10-07-2014 16:15:00 23.7 C 15.83 g/m*3 23.7 C 3.2 km/h
1231 10-07-2014 16:20:00 23.7 C 16.47 g/m*3 23.7 C 4.8 km/h
1232 10-07-2014 16:25:00 23.5 C 15.44 g/m*3 23.5 C 8.1 km/h
1233 10-07-2014 16:30:00 23.6 C 15.31 g/m*3 23.6 C 9.7 km/h
1234 10-07-2014 16:35:00 23.7 C 15.83 g/m*3 23.7 C 8.1 km/h
1235 10-07-2014 16:40:00 23.9 C 15.58 g/m*3 23.9 C 3.2 km/h
1236 10-07-2014 16:45:00 23.4 C 16.4 g/m*3 23.4 C 0 km/h
1237 10-07-2014 16:50:00 22.8 C 15.24 g/m*3 22.8 C 8.1 km/h
1238 10-07-2014 16:55:00 22.9 C 15.53 g/m*3 22.9 C 6.4 km/h
1239 10-07-2014 17:00:00 23 C 15.83 g/m*3 23 C 4.8 km/h
1240 10-07-2014 17:05:00 23.3 C 15.26 g/m*3 23.3 C 14.5 km/h
1241 10-07-2014 17:10:00 23.8 C 15.92 g/m*3 23.8 C 3.2 km/h
1242 10-07-2014 17:15:00 24.3 C 15.93 g/m*3 24.3 C 6.4 km/h
1243 10-07-2014 17:20:00 24.8 C 15.93 g/m*3 24.8 C 4.8 km/h
1244 10-07-2014 17:25:00 24.9 C 15.79 g/m*3 24.9 C 11.3 km/h
1245 10-07-2014 17:30:00 24.8 C 15.25 g/m*3 24.8 C 9.7 km/h
1246 10-07-2014 17:35:00 24.4 C 16.25 g/m*3 24.4 C 9.7 km/h
1247 10-07-2014 17:40:00 23.7 C 16.9 g/m*3 23.7 C 3.2 km/h
1248 10-07-2014 17:45:00 22.7 C 16.57 g/m*3 22.7 C 0 km/h
1249 10-07-2014 17:50:00 22.1 C 16.79 g/m*3 22.1 C 1.6 km/h
1250 10-07-2014 17:55:00 21.6 C 16.69 g/m*3 21.6 C 1.6 km/h
Sensor: Nr:Datum:Temp:Abs-Feuchte:Windchill:Wind:
Aussen-T/F 1251 10-07-2014 18:00:00 21.2 C 16.49 g/m*3 21.2 C 1.6 km/h
1252 10-07-2014 18:05:00 21.1 C 16.95 g/m*3 21.1 C 1.6 km/h
1253 10-07-2014 18:10:00 20.9 C 16.76 g/m*3 20.9 C 1.6 km/h
1254 10-07-2014 18:15:00 20.8 C 16.66 g/m*3 20.8 C 0 km/h
1255 10-07-2014 18:20:00 21.1 C 17.14 g/m*3 21.1 C 1.6 km/h
1256 10-07-2014 18:25:00 21.1 C 16.95 g/m*3 21.1 C 1.6 km/h
1257 10-07-2014 18:30:00 20.9 C 16.76 g/m*3 20.9 C 3.2 km/h
1258 10-07-2014 18:35:00 20.8 C 16.84 g/m*3 20.8 C 1.6 km/h
1259 10-07-2014 18:40:00 20.9 C 16.57 g/m*3 20.9 C 8.1 km/h
1260 10-07-2014 18:45:00 21.4 C 15.75 g/m*3 21.4 C 11.3 km/h
1261 10-07-2014 18:50:00 21.8 C 16.69 g/m*3 21.8 C 1.6 km/h
1262 10-07-2014 18:55:00 21.8 C 16.88 g/m*3 21.8 C 1.6 km/h
1263 10-07-2014 19:00:00 21.8 C 16.88 g/m*3 21.8 C 0 km/h
1264 10-07-2014 19:05:00 20.6 C 16.47 g/m*3 20.6 C 3.2 km/h
1265 10-07-2014 19:10:00 20.6 C 16.64 g/m*3 20.6 C 3.2 km/h
1266 10-07-2014 19:15:00 21 C 17.4 g/m*3 21 C 1.6 km/h
1267 10-07-2014 19:20:00 21.1 C 17.32 g/m*3 21.1 C 3.2 km/h
1268 10-07-2014 19:25:00 21.3 C 17.71 g/m*3 21.3 C 3.2 km/h
1269 10-07-2014 19:30:00 21.3 C 17.71 g/m*3 21.3 C 8.1 km/h
1270 10-07-2014 19:40:00 21.7 C 19.08 g/m*3 21.7 C 1.6 km/h
1271 10-07-2014 19:45:00 21.7 C 19.08 g/m*3 21.7 C 4.8 km/h
1272 10-07-2014 19:50:00 21.8 C 19.19 g/m*3 21.8 C 1.6 km/h
1273 10-07-2014 19:55:00 21.8 C 19.19 g/m*3 21.8 C 1.6 km/h
1274 10-07-2014 20:30:00 21.7 C 16.79 g/m*3 21.7 C 12.9 km/h
1275 10-07-2014 20:35:00 22.1 C 16.98 g/m*3 22.1 C 3.2 km/h
Sensor: Nr:Datum:Temp:Abs-Feuchte:Windchill:Wind:
Aussen-T/F 1276 10-07-2014 20:40:00 22.1 C 16.59 g/m*3 22.1 C 4.8 km/h
1277 10-07-2014 20:45:00 21.9 C 16.79 g/m*3 21.9 C 1.6 km/h
1278 10-07-2014 20:50:00 21.4 C 16.69 g/m*3 21.4 C 1.6 km/h
1279 10-07-2014 20:55:00 21.1 C 16.58 g/m*3 21.1 C 0 km/h
1280 10-07-2014 21:00:00 20.7 C 16.38 g/m*3 20.7 C 1.6 km/h
1281 10-07-2014 21:05:00 20.4 C 16.28 g/m*3 20.4 C 1.6 km/h
1282 10-07-2014 21:10:00 20.3 C 16.36 g/m*3 20.3 C 0 km/h
1283 10-07-2014 21:15:00 20.2 C 16.26 g/m*3 20.2 C 0 km/h
1284 10-07-2014 21:20:00 20.2 C 15.91 g/m*3 20.2 C 9.7 km/h
1285 10-07-2014 21:25:00 20.6 C 13.6 g/m*3 20.6 C 14.5 km/h
1286 10-07-2014 21:30:00 20.7 C 13.14 g/m*3 20.7 C 14.5 km/h
1287 10-07-2014 21:35:00 20.3 C 13.19 g/m*3 20.3 C 14.5 km/h
1288 10-07-2014 21:40:00 19.6 C 13.67 g/m*3 19.6 C 12.9 km/h
1289 10-07-2014 21:45:00 18.4 C 13.05 g/m*3 18.4 C 8.1 km/h
1290 10-07-2014 21:50:00 17.7 C 13.13 g/m*3 17.7 C 8.1 km/h
1291 10-07-2014 21:55:00 17.3 C 13.26 g/m*3 17.3 C 4.8 km/h
1292 10-07-2014 22:00:00 17.2 C 13.47 g/m*3 17.2 C 0 km/h
1293 10-07-2014 22:05:00 17 C 13.31 g/m*3 17 C 0 km/h
1294 10-07-2014 22:10:00 16.9 C 13.38 g/m*3 16.9 C 6.4 km/h
1295 10-07-2014 22:15:00 16.8 C 13.3 g/m*3 16.8 C 4.8 km/h
1296 10-07-2014 22:20:00 16.7 C 13.36 g/m*3 16.7 C 1.6 km/h
1297 10-07-2014 22:25:00 16.6 C 13.28 g/m*3 16.6 C 3.2 km/h
1298 10-07-2014 22:30:00 16.6 C 13.28 g/m*3 16.6 C 3.2 km/h
1299 10-07-2014 22:35:00 16.5 C 13.2 g/m*3 16.5 C 6.4 km/h
1300 10-07-2014 22:40:00 16.6 C 13.42 g/m*3 16.6 C 6.4 km/h
Sensor: Nr:Datum:Temp:Abs-Feuchte:Windchill:Wind:
Aussen-T/F 1301 10-07-2014 22:45:00 16.5 C 13.34 g/m*3 16.5 C 6.4 km/h
1302 10-07-2014 22:50:00 16.4 C 13.26 g/m*3 16.4 C 0 km/h
1303 10-07-2014 22:55:00 16.4 C 13.26 g/m*3 16.4 C 0 km/h
1304 10-07-2014 23:00:00 16.4 C 13.26 g/m*3 16.4 C 1.6 km/h
1305 10-07-2014 23:05:00 16.3 C 13.18 g/m*3 16.3 C 0 km/h
1306 10-07-2014 23:10:00 16.3 C 13.18 g/m*3 16.3 C 0 km/h
1307 10-07-2014 23:15:00 16.3 C 13.32 g/m*3 16.3 C 1.6 km/h
1308 10-07-2014 23:20:00 16.2 C 13.24 g/m*3 16.2 C 1.6 km/h
1309 10-07-2014 23:25:00 16.3 C 13.32 g/m*3 16.3 C 8.1 km/h
1310 10-07-2014 23:30:00 16.3 C 13.32 g/m*3 16.3 C 8.1 km/h
1311 10-07-2014 23:35:00 16.3 C 13.32 g/m*3 16.3 C 3.2 km/h
1312 10-07-2014 23:40:00 16.3 C 13.32 g/m*3 16.3 C 4.8 km/h
1313 10-07-2014 23:45:00 16.3 C 13.18 g/m*3 16.3 C 4.8 km/h
1314 10-07-2014 23:50:00 16.3 C 13.18 g/m*3 16.3 C 6.4 km/h
1315 10-07-2014 23:55:00 16.3 C 13.18 g/m*3 16.3 C 4.8 km/h
1316 11-07-2014 00:00:00 16.2 C 13.1 g/m*3 16.2 C 6.4 km/h
1317 11-07-2014 00:05:00 16.1 C 13.02 g/m*3 16.1 C 1.6 km/h
1318 11-07-2014 00:10:00 16.1 C 13.02 g/m*3 16.1 C 1.6 km/h
1319 11-07-2014 00:15:00 16 C 12.94 g/m*3 16 C 1.6 km/h
1320 11-07-2014 00:20:00 15.9 C 12.87 g/m*3 15.9 C 1.6 km/h
1321 11-07-2014 00:25:00 15.9 C 13 g/m*3 15.9 C 0 km/h
1322 11-07-2014 00:30:00 15.8 C 12.92 g/m*3 15.8 C 0 km/h
1323 11-07-2014 00:35:00 15.8 C 12.92 g/m*3 15.8 C 0 km/h
1324 11-07-2014 00:40:00 15.8 C 12.92 g/m*3 15.8 C 0 km/h
1325 11-07-2014 00:45:00 15.7 C 12.84 g/m*3 15.7 C 0 km/h
Sensor: Nr:Datum:Temp:Abs-Feuchte:Windchill:Wind:
Aussen-T/F 1326 11-07-2014 00:50:00 15.7 C 12.84 g/m*3 15.7 C 0 km/h
1327 11-07-2014 00:55:00 15.7 C 12.84 g/m*3 15.7 C 0 km/h
1328 11-07-2014 01:00:00 15.6 C 12.77 g/m*3 15.6 C 0 km/h
1329 11-07-2014 01:05:00 15.6 C 12.77 g/m*3 15.6 C 0 km/h
1330 11-07-2014 01:10:00 15.5 C 12.69 g/m*3 15.5 C 0 km/h
1331 11-07-2014 01:15:00 15.4 C 12.61 g/m*3 15.4 C 0 km/h
1332 11-07-2014 01:20:00 15.4 C 12.61 g/m*3 15.4 C 0 km/h
1333 11-07-2014 01:25:00 15.3 C 12.54 g/m*3 15.3 C 0 km/h
1334 11-07-2014 01:30:00 15.2 C 12.46 g/m*3 15.2 C 0 km/h
1335 11-07-2014 01:35:00 15.1 C 12.39 g/m*3 15.1 C 0 km/h
1336 11-07-2014 01:40:00 15 C 12.31 g/m*3 15 C 0 km/h
1337 11-07-2014 01:45:00 14.9 C 12.24 g/m*3 14.9 C 0 km/h
1338 11-07-2014 01:50:00 14.9 C 12.36 g/m*3 14.9 C 0 km/h
1339 11-07-2014 01:55:00 14.9 C 12.36 g/m*3 14.9 C 0 km/h
1340 11-07-2014 02:00:00 14.9 C 12.36 g/m*3 14.9 C 0 km/h
1341 11-07-2014 02:05:00 14.9 C 12.36 g/m*3 14.9 C 0 km/h
1342 11-07-2014 02:10:00 14.8 C 12.29 g/m*3 14.8 C 0 km/h
1343 11-07-2014 02:15:00 14.8 C 12.29 g/m*3 14.8 C 0 km/h
1344 11-07-2014 02:20:00 14.8 C 12.29 g/m*3 14.8 C 0 km/h
1345 11-07-2014 02:25:00 14.8 C 12.29 g/m*3 14.8 C 0 km/h
1346 11-07-2014 02:30:00 14.7 C 12.21 g/m*3 14.7 C 0 km/h
1347 11-07-2014 02:35:00 14.7 C 12.21 g/m*3 14.7 C 0 km/h
1348 11-07-2014 02:40:00 14.7 C 12.21 g/m*3 14.7 C 0 km/h
1349 11-07-2014 02:45:00 14.7 C 12.21 g/m*3 14.7 C 0 km/h
1350 11-07-2014 02:50:00 14.6 C 12.14 g/m*3 14.6 C 0 km/h
Sensor: Nr:Datum:Temp:Abs-Feuchte:Windchill:Wind:
Aussen-T/F 1351 11-07-2014 02:55:00 14.6 C 12.14 g/m*3 14.6 C 0 km/h
1352 11-07-2014 03:00:00 14.5 C 12.06 g/m*3 14.5 C 0 km/h
1353 11-07-2014 03:05:00 14.4 C 11.99 g/m*3 14.4 C 0 km/h
1354 11-07-2014 03:10:00 14.4 C 11.99 g/m*3 14.4 C 0 km/h
1355 11-07-2014 03:15:00 14.4 C 11.99 g/m*3 14.4 C 0 km/h
1356 11-07-2014 03:20:00 14.4 C 11.99 g/m*3 14.4 C 0 km/h
1357 11-07-2014 03:25:00 14.4 C 11.99 g/m*3 14.4 C 0 km/h
1358 11-07-2014 03:30:00 14.4 C 11.99 g/m*3 14.4 C 0 km/h
1359 11-07-2014 03:35:00 14.4 C 11.99 g/m*3 14.4 C 0 km/h
1360 11-07-2014 03:40:00 14.3 C 11.92 g/m*3 14.3 C 0 km/h
1361 11-07-2014 03:45:00 14.3 C 11.92 g/m*3 14.3 C 0 km/h
1362 11-07-2014 03:50:00 14.2 C 11.84 g/m*3 14.2 C 0 km/h
1363 11-07-2014 03:55:00 14.2 C 11.84 g/m*3 14.2 C 0 km/h
1364 11-07-2014 04:00:00 14.2 C 11.84 g/m*3 14.2 C 0 km/h
1365 11-07-2014 04:05:00 14.2 C 11.84 g/m*3 14.2 C 0 km/h
1366 11-07-2014 04:10:00 14.2 C 11.84 g/m*3 14.2 C 0 km/h
1367 11-07-2014 04:15:00 14.2 C 11.84 g/m*3 14.2 C 0 km/h
1368 11-07-2014 04:20:00 14.2 C 11.84 g/m*3 14.2 C 0 km/h
1369 11-07-2014 04:25:00 14.2 C 11.84 g/m*3 14.2 C 0 km/h
1370 11-07-2014 04:30:00 14.2 C 11.84 g/m*3 14.2 C 0 km/h
1371 11-07-2014 04:35:00 14.1 C 11.77 g/m*3 14.1 C 0 km/h
1372 11-07-2014 04:40:00 14.1 C 11.77 g/m*3 14.1 C 0 km/h
1373 11-07-2014 04:45:00 14.1 C 11.77 g/m*3 14.1 C 0 km/h
1374 11-07-2014 04:50:00 14.1 C 11.77 g/m*3 14.1 C 0 km/h
1375 11-07-2014 04:55:00 14.1 C 11.77 g/m*3 14.1 C 0 km/h
Sensor: Nr:Datum:Temp:Abs-Feuchte:Windchill:Wind:
Aussen-T/F 1376 11-07-2014 05:00:00 14.2 C 11.97 g/m*3 14.2 C 0 km/h
1377 11-07-2014 05:05:00 14.3 C 12.04 g/m*3 14.3 C 0 km/h
1378 11-07-2014 05:10:00 14.3 C 12.04 g/m*3 14.3 C 0 km/h
1379 11-07-2014 05:15:00 14.3 C 12.04 g/m*3 14.3 C 0 km/h
1380 11-07-2014 05:20:00 14.3 C 12.04 g/m*3 14.3 C 0 km/h
1381 11-07-2014 05:25:00 14.3 C 12.04 g/m*3 14.3 C 0 km/h
1382 11-07-2014 05:30:00 14.3 C 12.04 g/m*3 14.3 C 0 km/h
1383 11-07-2014 05:35:00 14.4 C 12.11 g/m*3 14.4 C 0 km/h
1384 11-07-2014 05:40:00 14.4 C 12.11 g/m*3 14.4 C 0 km/h
1385 11-07-2014 05:45:00 14.6 C 12.26 g/m*3 14.6 C 0 km/h
1386 11-07-2014 05:50:00 14.7 C 12.34 g/m*3 14.7 C 0 km/h
1387 11-07-2014 05:55:00 14.9 C 12.49 g/m*3 14.9 C 0 km/h
1388 11-07-2014 06:00:00 15.1 C 12.64 g/m*3 15.1 C 0 km/h
1389 11-07-2014 06:05:00 15.2 C 12.72 g/m*3 15.2 C 0 km/h
1390 11-07-2014 06:10:00 15.3 C 12.8 g/m*3 15.3 C 0 km/h
1391 11-07-2014 06:15:00 15.2 C 12.72 g/m*3 15.2 C 1.6 km/h
1392 11-07-2014 06:20:00 15.3 C 12.8 g/m*3 15.3 C 0 km/h
1393 11-07-2014 06:25:00 15.3 C 12.8 g/m*3 15.3 C 0 km/h
1394 11-07-2014 06:30:00 15.3 C 12.8 g/m*3 15.3 C 0 km/h
1395 11-07-2014 06:35:00 15.3 C 12.8 g/m*3 15.3 C 0 km/h
1396 11-07-2014 06:40:00 15.3 C 12.8 g/m*3 15.3 C 0 km/h
1397 11-07-2014 06:45:00 15.3 C 12.8 g/m*3 15.3 C 0 km/h
1398 11-07-2014 06:50:00 15.4 C 12.88 g/m*3 15.4 C 0 km/h
1399 11-07-2014 06:55:00 15.4 C 12.88 g/m*3 15.4 C 0 km/h
1400 11-07-2014 07:00:00 15.4 C 12.88 g/m*3 15.4 C 0 km/h
Sensor: Nr:Datum:Temp:Abs-Feuchte:Windchill:Wind:
Aussen-T/F 1401 11-07-2014 07:05:00 15.4 C 12.88 g/m*3 15.4 C 1.6 km/h
1402 11-07-2014 07:10:00 15.4 C 12.88 g/m*3 15.4 C 0 km/h
1403 11-07-2014 07:15:00 15.3 C 12.8 g/m*3 15.3 C 3.2 km/h
1404 11-07-2014 07:20:00 15.3 C 12.8 g/m*3 15.3 C 0 km/h
1405 11-07-2014 07:25:00 15.4 C 12.88 g/m*3 15.4 C 0 km/h
1406 11-07-2014 07:30:00 15.6 C 13.03 g/m*3 15.6 C 0 km/h
1407 11-07-2014 07:35:00 15.7 C 13.11 g/m*3 15.7 C 1.6 km/h
1408 11-07-2014 07:40:00 15.7 C 13.11 g/m*3 15.7 C 0 km/h
1409 11-07-2014 07:45:00 15.7 C 13.11 g/m*3 15.7 C 0 km/h
1410 11-07-2014 07:50:00 15.8 C 13.19 g/m*3 15.8 C 0 km/h
1411 11-07-2014 07:55:00 15.8 C 13.19 g/m*3 15.8 C 0 km/h
1412 11-07-2014 08:00:00 16 C 13.35 g/m*3 16 C 1.6 km/h
1413 11-07-2014 08:05:00 16.1 C 13.43 g/m*3 16.1 C 0 km/h
1414 11-07-2014 08:10:00 16.2 C 13.51 g/m*3 16.2 C 1.6 km/h
1415 11-07-2014 08:15:00 16.3 C 13.6 g/m*3 16.3 C 1.6 km/h
1416 11-07-2014 08:20:00 16.3 C 13.6 g/m*3 16.3 C 0 km/h
1417 11-07-2014 08:25:00 16.4 C 13.68 g/m*3 16.4 C 0 km/h
1418 11-07-2014 08:30:00 16.4 C 13.68 g/m*3 16.4 C 0 km/h
1419 11-07-2014 08:35:00 16.5 C 13.76 g/m*3 16.5 C 0 km/h
1420 11-07-2014 08:40:00 16.6 C 13.84 g/m*3 16.6 C 0 km/h
1421 11-07-2014 08:45:00 16.6 C 13.84 g/m*3 16.6 C 3.2 km/h
1422 11-07-2014 08:50:00 16.7 C 13.93 g/m*3 16.7 C 0 km/h
1423 11-07-2014 08:55:00 16.7 C 13.93 g/m*3 16.7 C 0 km/h
1424 11-07-2014 09:00:00 16.8 C 14.01 g/m*3 16.8 C 0 km/h
1425 11-07-2014 09:05:00 16.8 C 14.01 g/m*3 16.8 C 0 km/h
Sensor: Nr:Datum:Temp:Abs-Feuchte:Windchill:Wind:
Aussen-T/F 1426 11-07-2014 09:10:00 16.8 C 14.01 g/m*3 16.8 C 0 km/h
1427 11-07-2014 09:15:00 16.8 C 14.01 g/m*3 16.8 C 0 km/h
1428 11-07-2014 09:20:00 16.8 C 14.01 g/m*3 16.8 C 0 km/h
1429 11-07-2014 09:25:00 16.8 C 14.01 g/m*3 16.8 C 0 km/h
1430 11-07-2014 09:30:00 16.8 C 14.01 g/m*3 16.8 C 0 km/h
1431 11-07-2014 09:35:00 16.8 C 14.01 g/m*3 16.8 C 0 km/h
1432 11-07-2014 09:40:00 16.9 C 14.1 g/m*3 16.9 C 0 km/h
1433 11-07-2014 09:45:00 16.9 C 14.1 g/m*3 16.9 C 0 km/h
1434 11-07-2014 09:50:00 16.9 C 14.1 g/m*3 16.9 C 0 km/h
1435 11-07-2014 09:55:00 17.1 C 14.27 g/m*3 17.1 C 0 km/h
1436 11-07-2014 10:00:00 17.1 C 14.27 g/m*3 17.1 C 0 km/h
1437 11-07-2014 10:05:00 17.2 C 14.35 g/m*3 17.2 C 4.8 km/h
1438 11-07-2014 10:10:00 17.3 C 14.44 g/m*3 17.3 C 0 km/h
1439 11-07-2014 10:15:00 17.3 C 14.44 g/m*3 17.3 C 4.8 km/h
1440 11-07-2014 10:20:00 17.3 C 14.44 g/m*3 17.3 C 6.4 km/h
1441 11-07-2014 10:25:00 17.4 C 14.52 g/m*3 17.4 C 4.8 km/h
1442 11-07-2014 10:30:00 17.4 C 14.52 g/m*3 17.4 C 6.4 km/h
1443 11-07-2014 11:35:00 18.6 C 14.8 g/m*3 18.6 C 8.1 km/h
1444 11-07-2014 11:40:00 18.6 C 14.48 g/m*3 18.6 C 8.1 km/h
1445 11-07-2014 11:45:00 18.6 C 14.64 g/m*3 18.6 C 6.4 km/h
1446 11-07-2014 11:50:00 18.6 C 14.64 g/m*3 18.6 C 4.8 km/h
1447 11-07-2014 11:55:00 18.6 C 14.64 g/m*3 18.6 C 6.4 km/h
1448 11-07-2014 12:00:00 18.8 C 14.66 g/m*3 18.8 C 4.8 km/h
1449 11-07-2014 12:05:00 18.9 C 14.74 g/m*3 18.9 C 1.6 km/h
1450 11-07-2014 12:10:00 19 C 14.67 g/m*3 19 C 8.1 km/h
Sensor: Nr:Datum:Temp:Abs-Feuchte:Windchill:Wind:
Aussen-T/F 1451 11-07-2014 12:15:00 19.1 C 14.75 g/m*3 19.1 C 1.6 km/h
1452 11-07-2014 12:20:00 19.3 C 14.93 g/m*3 19.3 C 8.1 km/h
1453 11-07-2014 12:25:00 19.3 C 14.93 g/m*3 19.3 C 6.4 km/h
1454 11-07-2014 12:30:00 19.3 C 14.93 g/m*3 19.3 C 4.8 km/h
1455 11-07-2014 12:35:00 19.6 C 15.19 g/m*3 19.6 C 4.8 km/h
1456 11-07-2014 12:40:00 19.7 C 15.11 g/m*3 19.7 C 4.8 km/h
1457 11-07-2014 12:45:00 19.8 C 15.03 g/m*3 19.8 C 8.1 km/h
1458 11-07-2014 12:50:00 20 C 15.04 g/m*3 20 C 6.4 km/h
1459 11-07-2014 12:55:00 20.1 C 14.95 g/m*3 20.1 C 8.1 km/h
1460 11-07-2014 13:00:00 20.2 C 15.04 g/m*3 20.2 C 6.4 km/h
1461 11-07-2014 13:05:00 20.2 C 15.04 g/m*3 20.2 C 9.7 km/h
1462 11-07-2014 13:10:00 20.3 C 15.13 g/m*3 20.3 C 9.7 km/h
1463 11-07-2014 13:15:00 20.4 C 15.21 g/m*3 20.4 C 3.2 km/h
1464 11-07-2014 13:20:00 20.6 C 15.21 g/m*3 20.6 C 6.4 km/h
1465 11-07-2014 13:25:00 20.8 C 15.39 g/m*3 20.8 C 4.8 km/h
1466 11-07-2014 13:30:00 20.9 C 15.3 g/m*3 20.9 C 4.8 km/h
1467 11-07-2014 13:35:00 20.9 C 15.3 g/m*3 20.9 C 6.4 km/h
1468 11-07-2014 13:40:00 21.2 C 15.38 g/m*3 21.2 C 8.1 km/h
1469 11-07-2014 13:45:00 21.2 C 15.01 g/m*3 21.2 C 8.1 km/h
1470 11-07-2014 13:50:00 21.3 C 15.1 g/m*3 21.3 C 8.1 km/h
1471 11-07-2014 13:55:00 21.3 C 15.28 g/m*3 21.3 C 6.4 km/h
1472 11-07-2014 14:00:00 21.4 C 15.37 g/m*3 21.4 C 6.4 km/h
1473 11-07-2014 14:05:00 21.5 C 15.09 g/m*3 21.5 C 8.1 km/h
1474 11-07-2014 14:10:00 21.5 C 14.9 g/m*3 21.5 C 6.4 km/h
1475 11-07-2014 14:15:00 21.6 C 14.79 g/m*3 21.6 C 14.5 km/h
Sensor: Nr:Datum:Temp:Abs-Feuchte:Windchill:Wind:
Aussen-T/F 1476 11-07-2014 14:20:00 21.7 C 15.07 g/m*3 21.7 C 11.3 km/h
1477 11-07-2014 14:25:00 21.7 C 14.88 g/m*3 21.7 C 8.1 km/h
1478 11-07-2014 14:30:00 21.7 C 15.07 g/m*3 21.7 C 4.8 km/h
1479 11-07-2014 14:35:00 21.7 C 14.88 g/m*3 21.7 C 9.7 km/h
1480 11-07-2014 14:40:00 21.8 C 15.35 g/m*3 21.8 C 6.4 km/h
1481 11-07-2014 14:45:00 21.8 C 14.77 g/m*3 21.8 C 4.8 km/h
1482 11-07-2014 14:50:00 21.9 C 15.05 g/m*3 21.9 C 6.4 km/h
1483 11-07-2014 14:55:00 21.9 C 15.05 g/m*3 21.9 C 6.4 km/h
1484 11-07-2014 15:00:00 22.1 C 15.03 g/m*3 22.1 C 4.8 km/h
1485 11-07-2014 15:05:00 22.1 C 15.03 g/m*3 22.1 C 6.4 km/h
1486 11-07-2014 15:25:00 22.6 C 15.27 g/m*3 22.6 C 8.1 km/h
1487 11-07-2014 15:30:00 22.6 C 14.66 g/m*3 22.6 C 6.4 km/h
1488 11-07-2014 15:35:00 22.6 C 14.66 g/m*3 22.6 C 11.3 km/h
1489 11-07-2014 15:40:00 22.7 C 14.95 g/m*3 22.7 C 9.7 km/h
1490 11-07-2014 15:45:00 22.7 C 15.15 g/m*3 22.7 C 9.7 km/h
1491 11-07-2014 15:50:00 22.7 C 15.15 g/m*3 22.7 C 9.7 km/h
1492 11-07-2014 15:55:00 23.3 C 15.68 g/m*3 23.3 C 4.8 km/h
1493 11-07-2014 16:00:00 23.8 C 15.92 g/m*3 23.8 C 8.1 km/h
1494 11-07-2014 16:05:00 24.1 C 15.97 g/m*3 24.1 C 9.7 km/h
1495 11-07-2014 16:10:00 24.1 C 15.97 g/m*3 24.1 C 11.3 km/h
1496 11-07-2014 16:15:00 24.1 C 15.97 g/m*3 24.1 C 8.1 km/h
1497 11-07-2014 18:00:00 24.3 C 15.05 g/m*3 24.3 C 8.1 km/h
1498 11-07-2014 18:05:00 24.1 C 15.32 g/m*3 24.1 C 4.8 km/h
1499 11-07-2014 18:10:00 23.9 C 15.36 g/m*3 23.9 C 8.1 km/h
1500 11-07-2014 18:15:00 23.8 C 15.06 g/m*3 23.8 C 9.7 km/h
Sensor: Nr:Datum:Temp:Abs-Feuchte:Windchill:Wind:
Aussen-T/F 1501 11-07-2014 18:20:00 23.7 C 15.61 g/m*3 23.7 C 11.3 km/h
1502 11-07-2014 18:25:00 23.5 C 15.23 g/m*3 23.5 C 6.4 km/h
1503 11-07-2014 18:30:00 23.4 C 15.14 g/m*3 23.4 C 9.7 km/h
1504 11-07-2014 18:35:00 23.6 C 15.31 g/m*3 23.6 C 6.4 km/h
1505 11-07-2014 18:40:00 23.8 C 15.7 g/m*3 23.8 C 4.8 km/h
1506 11-07-2014 18:45:00 24.2 C 16.06 g/m*3 24.2 C 8.1 km/h
1507 11-07-2014 18:50:00 24.3 C 15.49 g/m*3 24.3 C 11.3 km/h
1508 11-07-2014 18:55:00 24.2 C 15.4 g/m*3 24.2 C 8.1 km/h
1509 11-07-2014 19:00:00 24.1 C 15.53 g/m*3 24.1 C 9.7 km/h
1510 11-07-2014 19:05:00 24.1 C 15.32 g/m*3 24.1 C 8.1 km/h
1511 11-07-2014 19:10:00 24.2 C 15.18 g/m*3 24.2 C 11.3 km/h
1512 11-07-2014 19:15:00 24.2 C 15.4 g/m*3 24.2 C 9.7 km/h
1513 11-07-2014 19:20:00 23.9 C 15.14 g/m*3 23.9 C 11.3 km/h
1514 11-07-2014 19:25:00 23.8 C 15.06 g/m*3 23.8 C 11.3 km/h
1515 11-07-2014 19:30:00 23.8 C 15.06 g/m*3 23.8 C 8.1 km/h
1516 11-07-2014 19:35:00 23.4 C 15.14 g/m*3 23.4 C 9.7 km/h
1517 11-07-2014 19:40:00 23.3 C 15.05 g/m*3 23.3 C 8.1 km/h
1518 11-07-2014 19:45:00 23.3 C 15.26 g/m*3 23.3 C 8.1 km/h
1519 11-07-2014 19:50:00 23.2 C 14.97 g/m*3 23.2 C 8.1 km/h
1520 11-07-2014 19:55:00 23.2 C 14.97 g/m*3 23.2 C 8.1 km/h
1521 11-07-2014 20:20:00 23.1 C 15.5 g/m*3 23.1 C 11.3 km/h
1522 11-07-2014 20:25:00 23.1 C 15.5 g/m*3 23.1 C 6.4 km/h
1523 11-07-2014 20:30:00 22.9 C 15.33 g/m*3 22.9 C 8.1 km/h
1524 11-07-2014 20:35:00 22.8 C 15.65 g/m*3 22.8 C 6.4 km/h
1525 11-07-2014 20:40:00 22.8 C 15.65 g/m*3 22.8 C 6.4 km/h
Sensor: Nr:Datum:Temp:Abs-Feuchte:Windchill:Wind:
Aussen-T/F 1526 11-07-2014 20:45:00 22.7 C 15.36 g/m*3 22.7 C 12.9 km/h
1527 11-07-2014 20:50:00 22.6 C 15.47 g/m*3 22.6 C 9.7 km/h
1528 11-07-2014 20:55:00 22.4 C 15.29 g/m*3 22.4 C 9.7 km/h
1529 11-07-2014 21:00:00 22.3 C 15.2 g/m*3 22.3 C 9.7 km/h
1530 11-07-2014 21:05:00 22.2 C 15.31 g/m*3 22.2 C 9.7 km/h
1531 11-07-2014 21:10:00 22.1 C 15.23 g/m*3 22.1 C 6.4 km/h
1532 11-07-2014 21:15:00 22 C 15.33 g/m*3 22 C 6.4 km/h
1533 11-07-2014 21:20:00 21.9 C 15.24 g/m*3 21.9 C 3.2 km/h
1534 11-07-2014 21:25:00 21.8 C 14.97 g/m*3 21.8 C 11.3 km/h
1535 11-07-2014 21:30:00 21.7 C 15.07 g/m*3 21.7 C 8.1 km/h
1536 11-07-2014 21:35:00 21.6 C 14.98 g/m*3 21.6 C 8.1 km/h
1537 11-07-2014 21:40:00 21.5 C 15.09 g/m*3 21.5 C 4.8 km/h
1538 11-07-2014 21:45:00 21.4 C 15 g/m*3 21.4 C 11.3 km/h
1539 11-07-2014 21:50:00 21.3 C 14.91 g/m*3 21.3 C 4.8 km/h
1540 11-07-2014 21:55:00 21.3 C 15.1 g/m*3 21.3 C 4.8 km/h
1541 11-07-2014 22:00:00 21.2 C 15.01 g/m*3 21.2 C 4.8 km/h
1542 11-07-2014 22:05:00 21.1 C 15.11 g/m*3 21.1 C 4.8 km/h
1543 11-07-2014 22:10:00 20.9 C 14.93 g/m*3 20.9 C 9.7 km/h
1544 11-07-2014 22:15:00 20.8 C 14.67 g/m*3 20.8 C 9.7 km/h
1545 11-07-2014 22:20:00 20.8 C 14.85 g/m*3 20.8 C 4.8 km/h
1546 11-07-2014 22:25:00 20.7 C 14.76 g/m*3 20.7 C 4.8 km/h
1547 11-07-2014 22:30:00 20.6 C 14.5 g/m*3 20.6 C 6.4 km/h
1548 11-07-2014 22:35:00 20.5 C 14.41 g/m*3 20.5 C 9.7 km/h
1549 11-07-2014 22:40:00 20.4 C 14.33 g/m*3 20.4 C 4.8 km/h
1550 11-07-2014 22:45:00 20.3 C 14.42 g/m*3 20.3 C 1.6 km/h
Sensor: Nr:Datum:Temp:Abs-Feuchte:Windchill:Wind:
Aussen-T/F 1551 11-07-2014 22:50:00 20.2 C 14.34 g/m*3 20.2 C 1.6 km/h
1552 11-07-2014 22:55:00 20.1 C 14.43 g/m*3 20.1 C 3.2 km/h
1553 11-07-2014 23:00:00 19.9 C 14.26 g/m*3 19.9 C 4.8 km/h
1554 11-07-2014 23:05:00 19.9 C 14.43 g/m*3 19.9 C 4.8 km/h
1555 11-07-2014 23:10:00 19.8 C 14.35 g/m*3 19.8 C 1.6 km/h
1556 11-07-2014 23:15:00 19.7 C 14.26 g/m*3 19.7 C 4.8 km/h
1557 11-07-2014 23:20:00 19.6 C 14.52 g/m*3 19.6 C 0 km/h
1558 11-07-2014 23:25:00 19.4 C 14.35 g/m*3 19.4 C 0 km/h
1559 11-07-2014 23:30:00 19.3 C 14.1 g/m*3 19.3 C 3.2 km/h
1560 11-07-2014 23:35:00 19.4 C 14.18 g/m*3 19.4 C 4.8 km/h
1561 11-07-2014 23:40:00 19.4 C 14.18 g/m*3 19.4 C 3.2 km/h
1562 11-07-2014 23:45:00 19.4 C 14.01 g/m*3 19.4 C 1.6 km/h
1563 11-07-2014 23:50:00 19.4 C 14.18 g/m*3 19.4 C 3.2 km/h
1564 11-07-2014 23:55:00 19.4 C 14.35 g/m*3 19.4 C 3.2 km/h
1565 12-07-2014 00:00:00 19.3 C 14.43 g/m*3 19.3 C 0 km/h
1566 12-07-2014 00:05:00 19.2 C 14.51 g/m*3 19.2 C 0 km/h
1567 12-07-2014 00:10:00 19 C 14.5 g/m*3 19 C 0 km/h
1568 12-07-2014 00:15:00 18.8 C 14.33 g/m*3 18.8 C 0 km/h
1569 12-07-2014 00:20:00 18.7 C 14.25 g/m*3 18.7 C 0 km/h
1570 12-07-2014 00:25:00 18.7 C 14.41 g/m*3 18.7 C 0 km/h
1571 12-07-2014 00:30:00 18.6 C 14.32 g/m*3 18.6 C 0 km/h
1572 12-07-2014 00:35:00 18.5 C 14.4 g/m*3 18.5 C 0 km/h
1573 12-07-2014 00:40:00 18.4 C 14.31 g/m*3 18.4 C 0 km/h
1574 12-07-2014 00:45:00 18.3 C 14.23 g/m*3 18.3 C 0 km/h
1575 12-07-2014 00:50:00 18.3 C 14.23 g/m*3 18.3 C 0 km/h
Sensor: Nr:Datum:Temp:Abs-Feuchte:Windchill:Wind:
Aussen-T/F 1576 12-07-2014 00:55:00 18.3 C 14.23 g/m*3 18.3 C 0 km/h
1577 12-07-2014 01:00:00 18.3 C 14.38 g/m*3 18.3 C 0 km/h
1578 12-07-2014 01:05:00 18.3 C 14.38 g/m*3 18.3 C 0 km/h
1579 12-07-2014 01:10:00 18.3 C 14.38 g/m*3 18.3 C 0 km/h
1580 12-07-2014 01:15:00 18.2 C 14.3 g/m*3 18.2 C 0 km/h
1581 12-07-2014 01:20:00 18.2 C 14.3 g/m*3 18.2 C 0 km/h
1582 12-07-2014 01:25:00 18.2 C 14.3 g/m*3 18.2 C 0 km/h
1583 12-07-2014 01:30:00 18.1 C 14.21 g/m*3 18.1 C 0 km/h
1584 12-07-2014 01:35:00 18.1 C 14.21 g/m*3 18.1 C 0 km/h
1585 12-07-2014 01:40:00 17.9 C 14.05 g/m*3 17.9 C 0 km/h
1586 12-07-2014 01:45:00 17.9 C 14.05 g/m*3 17.9 C 0 km/h
1587 12-07-2014 01:50:00 17.8 C 14.12 g/m*3 17.8 C 0 km/h
1588 12-07-2014 01:55:00 17.8 C 14.12 g/m*3 17.8 C 0 km/h
1589 12-07-2014 02:00:00 17.8 C 14.12 g/m*3 17.8 C 0 km/h
1590 12-07-2014 02:05:00 17.7 C 14.03 g/m*3 17.7 C 0 km/h
1591 12-07-2014 02:10:00 17.7 C 14.03 g/m*3 17.7 C 0 km/h
1592 12-07-2014 02:15:00 17.7 C 14.03 g/m*3 17.7 C 3.2 km/h
1593 12-07-2014 02:20:00 17.7 C 14.03 g/m*3 17.7 C 0 km/h
1594 12-07-2014 02:25:00 17.7 C 14.03 g/m*3 17.7 C 0 km/h
1595 12-07-2014 02:30:00 17.7 C 14.03 g/m*3 17.7 C 0 km/h
1596 12-07-2014 02:35:00 17.7 C 14.18 g/m*3 17.7 C 0 km/h
1597 12-07-2014 02:40:00 17.7 C 14.03 g/m*3 17.7 C 0 km/h
1598 12-07-2014 02:45:00 17.8 C 14.12 g/m*3 17.8 C 0 km/h
1599 12-07-2014 02:50:00 17.8 C 14.12 g/m*3 17.8 C 0 km/h
1600 12-07-2014 02:55:00 17.8 C 14.12 g/m*3 17.8 C 1.6 km/h
Sensor: Nr:Datum:Temp:Abs-Feuchte:Windchill:Wind:
Aussen-T/F 1601 12-07-2014 03:00:00 17.9 C 14.05 g/m*3 17.9 C 1.6 km/h
1602 12-07-2014 03:05:00 17.9 C 14.05 g/m*3 17.9 C 0 km/h
1603 12-07-2014 03:10:00 17.9 C 13.74 g/m*3 17.9 C 8.1 km/h
1604 12-07-2014 03:15:00 18.1 C 13.75 g/m*3 18.1 C 4.8 km/h
1605 12-07-2014 03:20:00 18.2 C 13.83 g/m*3 18.2 C 6.4 km/h
1606 12-07-2014 03:25:00 18.3 C 13.76 g/m*3 18.3 C 1.6 km/h
1607 12-07-2014 03:30:00 18.3 C 13.76 g/m*3 18.3 C 3.2 km/h
1608 12-07-2014 03:35:00 18.3 C 13.76 g/m*3 18.3 C 1.6 km/h
1609 12-07-2014 03:40:00 18.3 C 13.76 g/m*3 18.3 C 8.1 km/h
1610 12-07-2014 03:45:00 18.3 C 13.6 g/m*3 18.3 C 6.4 km/h
1611 12-07-2014 03:50:00 18.3 C 13.76 g/m*3 18.3 C 3.2 km/h
1612 12-07-2014 03:55:00 18.3 C 13.76 g/m*3 18.3 C 3.2 km/h
1613 12-07-2014 04:00:00 18.3 C 13.92 g/m*3 18.3 C 1.6 km/h
1614 12-07-2014 04:05:00 18.3 C 13.92 g/m*3 18.3 C 1.6 km/h
1615 12-07-2014 04:10:00 18.2 C 13.83 g/m*3 18.2 C 1.6 km/h
1616 12-07-2014 04:15:00 18.2 C 13.83 g/m*3 18.2 C 1.6 km/h
1617 12-07-2014 04:20:00 18.1 C 13.91 g/m*3 18.1 C 0 km/h
1618 12-07-2014 04:25:00 18.1 C 13.91 g/m*3 18.1 C 4.8 km/h
1619 12-07-2014 04:30:00 18.1 C 13.75 g/m*3 18.1 C 6.4 km/h
1620 12-07-2014 04:35:00 18.1 C 13.75 g/m*3 18.1 C 8.1 km/h
1621 12-07-2014 04:40:00 18.1 C 13.75 g/m*3 18.1 C 6.4 km/h
1622 12-07-2014 04:45:00 18.1 C 13.75 g/m*3 18.1 C 4.8 km/h
1623 12-07-2014 04:50:00 18.2 C 13.68 g/m*3 18.2 C 6.4 km/h
1624 12-07-2014 04:55:00 18.2 C 13.68 g/m*3 18.2 C 6.4 km/h
1625 12-07-2014 05:00:00 18.2 C 13.68 g/m*3 18.2 C 11.3 km/h
Sensor: Nr:Datum:Temp:Abs-Feuchte:Windchill:Wind:
Aussen-T/F 1626 12-07-2014 05:05:00 18.2 C 13.68 g/m*3 18.2 C 11.3 km/h
1627 12-07-2014 05:10:00 18.2 C 13.68 g/m*3 18.2 C 6.4 km/h
1628 12-07-2014 05:15:00 18.2 C 13.68 g/m*3 18.2 C 9.7 km/h
1629 12-07-2014 05:20:00 18.1 C 13.6 g/m*3 18.1 C 6.4 km/h
1630 12-07-2014 05:25:00 18.1 C 13.75 g/m*3 18.1 C 6.4 km/h
1631 12-07-2014 05:30:00 18.1 C 13.75 g/m*3 18.1 C 3.2 km/h
1632 12-07-2014 05:35:00 18.1 C 13.75 g/m*3 18.1 C 1.6 km/h
1633 12-07-2014 05:40:00 18.1 C 13.75 g/m*3 18.1 C 6.4 km/h
1634 12-07-2014 05:45:00 18.1 C 13.75 g/m*3 18.1 C 12.9 km/h
1635 12-07-2014 05:50:00 18.1 C 13.75 g/m*3 18.1 C 1.6 km/h
1636 12-07-2014 05:55:00 18.1 C 13.75 g/m*3 18.1 C 3.2 km/h
1637 12-07-2014 06:00:00 18.1 C 13.75 g/m*3 18.1 C 4.8 km/h
1638 12-07-2014 06:05:00 18.1 C 13.75 g/m*3 18.1 C 11.3 km/h
1639 12-07-2014 06:10:00 18.1 C 13.75 g/m*3 18.1 C 3.2 km/h
1640 12-07-2014 06:15:00 18.1 C 13.75 g/m*3 18.1 C 3.2 km/h
1641 12-07-2014 06:20:00 18.1 C 13.75 g/m*3 18.1 C 8.1 km/h
1642 12-07-2014 06:25:00 18.1 C 13.75 g/m*3 18.1 C 4.8 km/h
1643 12-07-2014 06:30:00 18.1 C 13.91 g/m*3 18.1 C 6.4 km/h
1644 12-07-2014 06:35:00 18 C 13.82 g/m*3 18 C 6.4 km/h
1645 12-07-2014 06:40:00 18 C 13.82 g/m*3 18 C 4.8 km/h
1646 12-07-2014 06:45:00 17.9 C 13.74 g/m*3 17.9 C 4.8 km/h
1647 12-07-2014 06:50:00 17.9 C 13.89 g/m*3 17.9 C 3.2 km/h
1648 12-07-2014 06:55:00 17.9 C 13.89 g/m*3 17.9 C 9.7 km/h
1649 12-07-2014 07:00:00 17.9 C 13.89 g/m*3 17.9 C 9.7 km/h
1650 12-07-2014 07:05:00 17.9 C 13.89 g/m*3 17.9 C 6.4 km/h
Sensor: Nr:Datum:Temp:Abs-Feuchte:Windchill:Wind:
Aussen-T/F 1651 12-07-2014 07:10:00 17.9 C 13.89 g/m*3 17.9 C 8.1 km/h
1652 12-07-2014 07:15:00 17.9 C 13.89 g/m*3 17.9 C 4.8 km/h
1653 12-07-2014 07:20:00 17.8 C 13.81 g/m*3 17.8 C 3.2 km/h
1654 12-07-2014 07:25:00 17.8 C 13.81 g/m*3 17.8 C 4.8 km/h
1655 12-07-2014 07:30:00 17.8 C 13.81 g/m*3 17.8 C 0 km/h
1656 12-07-2014 07:35:00 17.8 C 13.81 g/m*3 17.8 C 3.2 km/h
1657 12-07-2014 07:40:00 17.8 C 13.81 g/m*3 17.8 C 1.6 km/h
1658 12-07-2014 07:45:00 17.8 C 13.81 g/m*3 17.8 C 3.2 km/h
1659 12-07-2014 07:50:00 17.8 C 13.81 g/m*3 17.8 C 1.6 km/h
1660 12-07-2014 07:55:00 17.9 C 13.89 g/m*3 17.9 C 4.8 km/h
1661 12-07-2014 08:00:00 17.8 C 13.81 g/m*3 17.8 C 6.4 km/h
1662 12-07-2014 08:05:00 17.9 C 13.89 g/m*3 17.9 C 3.2 km/h
1663 12-07-2014 08:10:00 17.8 C 13.81 g/m*3 17.8 C 12.9 km/h
1664 12-07-2014 08:15:00 17.8 C 13.81 g/m*3 17.8 C 9.7 km/h
1665 12-07-2014 08:20:00 17.8 C 13.81 g/m*3 17.8 C 8.1 km/h
1666 12-07-2014 08:25:00 17.8 C 13.81 g/m*3 17.8 C 6.4 km/h
1667 12-07-2014 08:30:00 17.7 C 13.73 g/m*3 17.7 C 4.8 km/h
1668 12-07-2014 08:35:00 17.7 C 13.88 g/m*3 17.7 C 3.2 km/h
1669 12-07-2014 08:40:00 17.6 C 13.8 g/m*3 17.6 C 1.6 km/h
1670 12-07-2014 08:45:00 17.7 C 13.88 g/m*3 17.7 C 3.2 km/h
1671 12-07-2014 08:50:00 17.7 C 13.88 g/m*3 17.7 C 3.2 km/h
1672 12-07-2014 08:55:00 17.7 C 13.73 g/m*3 17.7 C 4.8 km/h
1673 12-07-2014 09:00:00 17.7 C 13.73 g/m*3 17.7 C 6.4 km/h
1674 12-07-2014 09:05:00 17.7 C 13.73 g/m*3 17.7 C 1.6 km/h
1675 12-07-2014 09:10:00 17.8 C 13.81 g/m*3 17.8 C 12.9 km/h
Sensor: Nr:Datum:Temp:Abs-Feuchte:Windchill:Wind:
Aussen-T/F 1676 12-07-2014 09:15:00 17.8 C 13.66 g/m*3 17.8 C 6.4 km/h
1677 12-07-2014 09:20:00 17.8 C 13.66 g/m*3 17.8 C 8.1 km/h
1678 12-07-2014 09:25:00 17.8 C 13.66 g/m*3 17.8 C 6.4 km/h
1679 12-07-2014 09:30:00 17.9 C 13.74 g/m*3 17.9 C 4.8 km/h
1680 12-07-2014 09:35:00 18 C 13.67 g/m*3 18 C 9.7 km/h
1681 12-07-2014 09:40:00 18 C 13.67 g/m*3 18 C 3.2 km/h
1682 12-07-2014 09:45:00 18 C 13.67 g/m*3 18 C 4.8 km/h
1683 12-07-2014 09:50:00 18 C 13.67 g/m*3 18 C 3.2 km/h
1684 12-07-2014 12:55:00 18.4 C 14.47 g/m*3 18.4 C 4.8 km/h
1685 12-07-2014 13:00:00 18.6 C 14.48 g/m*3 18.6 C 6.4 km/h
1686 12-07-2014 13:05:00 18.8 C 14.66 g/m*3 18.8 C 4.8 km/h
1687 12-07-2014 13:10:00 19 C 14.67 g/m*3 19 C 4.8 km/h
1688 12-07-2014 13:15:00 19.1 C 14.75 g/m*3 19.1 C 6.4 km/h
1689 12-07-2014 13:20:00 19.1 C 14.43 g/m*3 19.1 C 8.1 km/h
1690 12-07-2014 13:25:00 19.1 C 14.43 g/m*3 19.1 C 11.3 km/h
1691 12-07-2014 13:30:00 19 C 14.34 g/m*3 19 C 8.1 km/h
1692 12-07-2014 13:35:00 19.1 C 14.43 g/m*3 19.1 C 9.7 km/h
1693 12-07-2014 13:40:00 19.2 C 14.51 g/m*3 19.2 C 6.4 km/h
1694 12-07-2014 13:45:00 19.3 C 14.43 g/m*3 19.3 C 8.1 km/h
1695 12-07-2014 13:50:00 19.4 C 14.52 g/m*3 19.4 C 6.4 km/h
1696 12-07-2014 13:55:00 19.4 C 14.35 g/m*3 19.4 C 8.1 km/h
1697 12-07-2014 14:00:00 19.3 C 14.43 g/m*3 19.3 C 8.1 km/h
1698 12-07-2014 14:05:00 19.3 C 14.43 g/m*3 19.3 C 9.7 km/h
1699 12-07-2014 14:10:00 19.3 C 14.43 g/m*3 19.3 C 6.4 km/h
1700 12-07-2014 14:15:00 19.3 C 14.43 g/m*3 19.3 C 8.1 km/h
Sensor: Nr:Datum:Temp:Abs-Feuchte:Windchill:Wind:
Aussen-T/F 1701 12-07-2014 14:20:00 19.3 C 14.26 g/m*3 19.3 C 9.7 km/h
1702 12-07-2014 14:25:00 19.3 C 14.26 g/m*3 19.3 C 8.1 km/h
1703 12-07-2014 14:30:00 19.3 C 14.26 g/m*3 19.3 C 11.3 km/h
1704 12-07-2014 14:35:00 19.4 C 14.35 g/m*3 19.4 C 9.7 km/h
1705 12-07-2014 14:40:00 19.4 C 14.35 g/m*3 19.4 C 8.1 km/h
1706 12-07-2014 14:45:00 19.4 C 14.35 g/m*3 19.4 C 6.4 km/h
1707 12-07-2014 14:50:00 19.4 C 14.35 g/m*3 19.4 C 6.4 km/h
1708 12-07-2014 14:55:00 19.4 C 14.18 g/m*3 19.4 C 8.1 km/h
1709 12-07-2014 15:00:00 19.8 C 14.52 g/m*3 19.8 C 11.3 km/h
1710 12-07-2014 15:05:00 19.8 C 14.52 g/m*3 19.8 C 8.1 km/h
1711 12-07-2014 15:25:00 21 C 14.84 g/m*3 21 C 8.1 km/h
1712 12-07-2014 15:30:00 21 C 14.65 g/m*3 21 C 6.4 km/h
1713 12-07-2014 15:35:00 20.8 C 14.3 g/m*3 20.8 C 8.1 km/h
1714 12-07-2014 15:40:00 20.6 C 14.32 g/m*3 20.6 C 9.7 km/h
1715 12-07-2014 15:45:00 20.4 C 14.33 g/m*3 20.4 C 9.7 km/h
1716 12-07-2014 15:50:00 20.1 C 14.08 g/m*3 20.1 C 9.7 km/h
1717 12-07-2014 15:55:00 19.8 C 14.18 g/m*3 19.8 C 14.5 km/h
1718 12-07-2014 16:00:00 19.6 C 14.18 g/m*3 19.6 C 11.3 km/h
1719 12-07-2014 16:05:00 19.3 C 14.26 g/m*3 19.3 C 8.1 km/h
1720 12-07-2014 16:10:00 19.2 C 14.35 g/m*3 19.2 C 4.8 km/h
1721 12-07-2014 16:15:00 19.1 C 14.43 g/m*3 19.1 C 6.4 km/h
1722 12-07-2014 16:20:00 18.9 C 14.26 g/m*3 18.9 C 4.8 km/h
1723 12-07-2014 16:25:00 18.9 C 14.58 g/m*3 18.9 C 6.4 km/h
1724 12-07-2014 16:30:00 18.9 C 14.42 g/m*3 18.9 C 4.8 km/h
1725 12-07-2014 16:35:00 19 C 14.67 g/m*3 19 C 4.8 km/h
Sensor: Nr:Datum:Temp:Abs-Feuchte:Windchill:Wind:
Aussen-T/F 1726 12-07-2014 16:40:00 19.1 C 14.75 g/m*3 19.1 C 3.2 km/h
1727 12-07-2014 16:45:00 19.1 C 14.59 g/m*3 19.1 C 3.2 km/h
1728 12-07-2014 16:50:00 19.1 C 14.59 g/m*3 19.1 C 4.8 km/h
1729 12-07-2014 16:55:00 19.1 C 14.59 g/m*3 19.1 C 4.8 km/h
1730 12-07-2014 18:25:00 21.9 C 14.86 g/m*3 21.9 C 11.3 km/h
1731 12-07-2014 18:30:00 22 C 14.94 g/m*3 22 C 6.4 km/h
1732 12-07-2014 18:35:00 21.9 C 14.67 g/m*3 21.9 C 8.1 km/h
1733 12-07-2014 18:40:00 21.7 C 14.69 g/m*3 21.7 C 8.1 km/h
1734 12-07-2014 18:45:00 21.7 C 14.5 g/m*3 21.7 C 8.1 km/h
1735 12-07-2014 18:50:00 21.8 C 14.97 g/m*3 21.8 C 6.4 km/h
1736 12-07-2014 18:55:00 21.8 C 14.58 g/m*3 21.8 C 6.4 km/h
1737 12-07-2014 19:00:00 21.7 C 14.69 g/m*3 21.7 C 6.4 km/h
1738 12-07-2014 19:05:00 21.4 C 14.62 g/m*3 21.4 C 9.7 km/h
1739 12-07-2014 19:10:00 21.1 C 14.37 g/m*3 21.1 C 9.7 km/h
1740 12-07-2014 19:15:00 20.9 C 14.21 g/m*3 20.9 C 8.1 km/h
1741 12-07-2014 19:20:00 20.9 C 14.21 g/m*3 20.9 C 6.4 km/h
1742 12-07-2014 19:25:00 20.9 C 14.21 g/m*3 20.9 C 6.4 km/h
1743 12-07-2014 20:00:00 20.3 C 17.59 g/m*3 20.3 C 4.8 km/h
1744 12-07-2014 20:05:00 20.3 C 14.25 g/m*3 20.3 C 8.1 km/h
1745 12-07-2014 20:10:00 20.2 C 14.16 g/m*3 20.2 C 6.4 km/h
1746 12-07-2014 20:15:00 20.1 C 14.08 g/m*3 20.1 C 3.2 km/h
1747 12-07-2014 20:20:00 20 C 14 g/m*3 20 C 4.8 km/h
1748 12-07-2014 20:25:00 19.9 C 14.09 g/m*3 19.9 C 6.4 km/h
1749 12-07-2014 20:30:00 19.8 C 13.84 g/m*3 19.8 C 8.1 km/h
1750 12-07-2014 20:35:00 19.8 C 14.01 g/m*3 19.8 C 6.4 km/h
Sensor: Nr:Datum:Temp:Abs-Feuchte:Windchill:Wind:
Aussen-T/F 1751 12-07-2014 20:40:00 19.7 C 13.92 g/m*3 19.7 C 6.4 km/h
1752 12-07-2014 20:45:00 19.7 C 14.09 g/m*3 19.7 C 4.8 km/h
1753 12-07-2014 20:50:00 19.7 C 14.09 g/m*3 19.7 C 3.2 km/h
1754 12-07-2014 20:55:00 19.7 C 14.09 g/m*3 19.7 C 4.8 km/h
1755 12-07-2014 21:00:00 19.6 C 14.01 g/m*3 19.6 C 4.8 km/h
1756 12-07-2014 21:05:00 19.6 C 14.18 g/m*3 19.6 C 6.4 km/h
1757 12-07-2014 21:10:00 19.5 C 14.1 g/m*3 19.5 C 3.2 km/h
1758 12-07-2014 21:15:00 19.4 C 14.01 g/m*3 19.4 C 6.4 km/h
1759 12-07-2014 21:20:00 19.3 C 13.93 g/m*3 19.3 C 3.2 km/h
1760 12-07-2014 21:25:00 19.3 C 13.93 g/m*3 19.3 C 8.1 km/h
1761 12-07-2014 21:30:00 19.2 C 13.85 g/m*3 19.2 C 4.8 km/h
1762 12-07-2014 21:35:00 19.2 C 13.85 g/m*3 19.2 C 6.4 km/h
1763 12-07-2014 21:40:00 19.2 C 13.85 g/m*3 19.2 C 4.8 km/h
1764 12-07-2014 21:45:00 19.1 C 13.77 g/m*3 19.1 C 4.8 km/h
1765 12-07-2014 21:50:00 19.1 C 14.1 g/m*3 19.1 C 4.8 km/h
1766 12-07-2014 21:55:00 18.8 C 13.69 g/m*3 18.8 C 0 km/h
1767 12-07-2014 22:00:00 18.8 C 13.85 g/m*3 18.8 C 8.1 km/h
1768 12-07-2014 22:05:00 18.7 C 13.77 g/m*3 18.7 C 8.1 km/h
1769 12-07-2014 22:10:00 18.7 C 13.93 g/m*3 18.7 C 1.6 km/h
1770 12-07-2014 22:15:00 18.6 C 13.69 g/m*3 18.6 C 8.1 km/h
1771 12-07-2014 22:20:00 18.6 C 13.85 g/m*3 18.6 C 3.2 km/h
1772 12-07-2014 22:25:00 18.5 C 14.08 g/m*3 18.5 C 0 km/h
1773 12-07-2014 22:30:00 18.4 C 14 g/m*3 18.4 C 0 km/h
1774 12-07-2014 22:35:00 18.2 C 13.99 g/m*3 18.2 C 0 km/h
1775 12-07-2014 22:40:00 18.1 C 14.06 g/m*3 18.1 C 0 km/h
Sensor: Nr:Datum:Temp:Abs-Feuchte:Windchill:Wind:
Aussen-T/F 1776 12-07-2014 22:45:00 18 C 13.82 g/m*3 18 C 1.6 km/h
1777 12-07-2014 22:50:00 17.9 C 13.59 g/m*3 17.9 C 0 km/h
1778 12-07-2014 22:55:00 18 C 13.82 g/m*3 18 C 0 km/h
1779 12-07-2014 23:00:00 18 C 13.98 g/m*3 18 C 1.6 km/h
1780 12-07-2014 23:05:00 17.9 C 13.89 g/m*3 17.9 C 0 km/h
1781 12-07-2014 23:10:00 17.9 C 13.89 g/m*3 17.9 C 0 km/h
1782 12-07-2014 23:15:00 17.8 C 13.81 g/m*3 17.8 C 0 km/h
1783 12-07-2014 23:20:00 17.7 C 13.73 g/m*3 17.7 C 0 km/h
1784 12-07-2014 23:25:00 17.6 C 13.8 g/m*3 17.6 C 0 km/h
1785 12-07-2014 23:30:00 17.6 C 13.8 g/m*3 17.6 C 0 km/h
1786 12-07-2014 23:35:00 17.6 C 13.8 g/m*3 17.6 C 1.6 km/h
1787 12-07-2014 23:40:00 17.5 C 13.87 g/m*3 17.5 C 0 km/h
1788 12-07-2014 23:45:00 17.5 C 13.87 g/m*3 17.5 C 0 km/h
1789 12-07-2014 23:50:00 17.4 C 13.78 g/m*3 17.4 C 0 km/h
1790 12-07-2014 23:55:00 17.4 C 13.78 g/m*3 17.4 C 0 km/h

Legende:
   Min
   Max


Maximal/Minimal-Werte vom 06.07.2014 - 12.07.2014

Sensor Min Max Avg
Temp
(Aussen-T/F)
11.7 °C
09-07-2014  03:20:00
31.6 °C
06-07-2014  17:25:00
18.08 °C
Abs-Feuchte
(Aussen-T/F)
7.97 g/m*3
07-07-2014  16:35:00
19.19 g/m*3
10-07-2014  19:50:00
12.63 g/m*3
Windchill
(Aussen-T/F)
11.7 C
09-07-2014  03:20:00
31.6 C
06-07-2014  17:25:00
18.07 C

Die Daten stammen von einer Davis Vantage Pro 2 Wetter-Station und werden unter Linux mit der Software wview2wettercgi und aufbereitet. Alle Angaben erfolgen ohne Gewähr für ihre Vollständigkeit oder Richtigkeit.
Kontakt: Rainer Krienke krienke@uni-koblenz.de . Meine Webseiten an der Uni Koblenz oder privat.
Version: $Revision: 0.78 $